Observation data for McCamey on 07/02/2020      Previous  Date       Current Mesonet Observations  Soil Data  Daily Summary Page  Observations in Plain Language
KMC4 020500Z 09008KT 25/18 A2998 RMK A01 T02490175  RH  064%=      5-min Rain = 0
KMC4 020501Z 09009KT 25/18 A2998 RMK A01 T02490175  RH  064%=      5-min Rain = 0
KMC4 020502Z 09008KT 25/18 A2998 RMK A01 T02490175  RH  063%=      5-min Rain = 0
KMC4 020503Z 10008KT 25/18 A2998 RMK A01 T02490175  RH  063%=      5-min Rain = 0
KMC4 020504Z 10009KT 25/17 A2999 RMK A01 T02490174  RH  063%=      5-min Rain = 0
KMC4 020505Z 10008KT 25/17 A2999 RMK A01 T02480174  RH  063%=      5-min Rain = 0
KMC4 020506Z 09008KT 25/17 A2999 RMK A01 T02480174  RH  063%=      5-min Rain = 0
KMC4 020507Z 10007KT 25/17 A2999 RMK A01 T02480174  RH  063%=      5-min Rain = 0
KMC4 020508Z 09009KT 25/17 A2999 RMK A01 T02480174  RH  063%=      5-min Rain = 0
KMC4 020509Z 09009KT 25/17 A2999 RMK A01 T02480174  RH  063%=      5-min Rain = 0
KMC4 020510Z 09007KT 25/17 A2999 RMK A01 T02470173  RH  063%=      5-min Rain = 0
KMC4 020511Z 09009KT 25/17 A2999 RMK A01 T02470173  RH  064%=      5-min Rain = 0
KMC4 020512Z 09009KT 25/17 A2999 RMK A01 T02470173  RH  064%=      5-min Rain = 0
KMC4 020513Z 10007KT 25/17 A2999 RMK A01 T02470173  RH  063%=      5-min Rain = 0
KMC4 020514Z 10009KT 25/17 A2999 RMK A01 T02470173  RH  063%=      5-min Rain = 0
KMC4 020515Z 09008KT 25/17 A2999 RMK A01 T02470173  RH  063%=      5-min Rain = 0
KMC4 020516Z 11008KT 25/17 A2999 RMK A01 T02470173  RH  063%=      5-min Rain = 0
KMC4 020517Z 12008KT 25/18 A2999 RMK A01 T02470175  RH  064%=      5-min Rain = 0
KMC4 020518Z 12007KT 25/17 A2999 RMK A01 T02460174  RH  064%=      5-min Rain = 0
KMC4 020519Z 12007KT 25/18 A2999 RMK A01 T02460175  RH  065%=      5-min Rain = 0
KMC4 020520Z 12008KT 25/18 A2999 RMK A01 T02460175  RH  065%=      5-min Rain = 0
KMC4 020521Z 11008KT 25/18 A2999 RMK A01 T02450175  RH  065%=      5-min Rain = 0
KMC4 020522Z 11007KT 25/18 A2999 RMK A01 T02450175  RH  065%=      5-min Rain = 0
KMC4 020523Z 11008KT 25/18 A2999 RMK A01 T02450175  RH  065%=      5-min Rain = 0
KMC4 020524Z 11008KT 25/18 A2999 RMK A01 T02450175  RH  065%=      5-min Rain = 0
KMC4 020525Z 10008KT 25/17 A2999 RMK A01 T02450174  RH  065%=      5-min Rain = 0
KMC4 020526Z 10008KT 25/17 A2999 RMK A01 T02450174  RH  065%=      5-min Rain = 0
KMC4 020527Z 11007KT 25/17 A2999 RMK A01 T02450174  RH  065%=      5-min Rain = 0
KMC4 020528Z 11006KT 25/17 A2999 RMK A01 T02450174  RH  065%=      5-min Rain = 0
KMC4 020529Z 11006KT 24/17 A2999 RMK A01 T02440173  RH  065%=      5-min Rain = 0
KMC4 020530Z 11006KT 24/17 A2999 RMK A01 T02440173  RH  065%=      5-min Rain = 0
KMC4 020531Z 11005KT 24/17 A2999 RMK A01 T02440173  RH  065%=      5-min Rain = 0
KMC4 020532Z 11005KT 24/17 A2999 RMK A01 T02440173  RH  064%=      5-min Rain = 0
KMC4 020533Z 11006KT 24/17 A2999 RMK A01 T02440172  RH  064%=      5-min Rain = 0
KMC4 020534Z 10006KT 24/17 A2999 RMK A01 T02440172  RH  064%=      5-min Rain = 0
KMC4 020535Z 10006KT 24/17 A2999 RMK A01 T02440172  RH  064%=      5-min Rain = 0
KMC4 020536Z 09005KT 25/17 A2999 RMK A01 T02450172  RH  064%=      5-min Rain = 0
KMC4 020537Z 09004KT 25/17 A2999 RMK A01 T02450172  RH  064%=      5-min Rain = 0
KMC4 020538Z 10005KT 25/17 A2999 RMK A01 T02450171  RH  063%=      5-min Rain = 0
KMC4 020539Z 09006KT 25/17 A2999 RMK A01 T02450170  RH  063%=      5-min Rain = 0
KMC4 020540Z 09008KT 25/17 A2999 RMK A01 T02460168  RH  062%=      5-min Rain = 0
KMC4 020541Z 09009KT 25/17 A2999 RMK A01 T02470168  RH  061%=      5-min Rain = 0
KMC4 020542Z 11007KT 25/17 A2999 RMK A01 T02480167  RH  061%=      5-min Rain = 0
KMC4 020543Z 10008KT 25/17 A2999 RMK A01 T02490167  RH  060%=      5-min Rain = 0
KMC4 020544Z 10009KT 25/17 A2999 RMK A01 T02490167  RH  060%=      5-min Rain = 0
KMC4 020545Z 12009KT 25/17 A2999 RMK A01 T02490166  RH  060%=      5-min Rain = 0
KMC4 020546Z 12009KT 25/17 A2999 RMK A01 T02500167  RH  060%=      5-min Rain = 0
KMC4 020547Z 11009KT 25/17 A2999 RMK A01 T02500167  RH  060%=      5-min Rain = 0
KMC4 020548Z 10008KT 25/17 A2998 RMK A01 T02500167  RH  060%=      5-min Rain = 0
KMC4 020549Z 11007KT 25/17 A2998 RMK A01 T02500167  RH  060%=      5-min Rain = 0
KMC4 020550Z 12006KT 25/17 A2998 RMK A01 T02500168  RH  060%=      5-min Rain = 0
KMC4 020551Z 11006KT 25/17 A2998 RMK A01 T02490167  RH  061%=      5-min Rain = 0
KMC4 020552Z 12006KT 25/17 A2998 RMK A01 T02480167  RH  061%=      5-min Rain = 0
KMC4 020553Z 12006KT 25/17 A2998 RMK A01 T02480167  RH  061%=      5-min Rain = 0
KMC4 020554Z 12007KT 25/17 A2998 RMK A01 T02470167  RH  061%=      5-min Rain = 0
KMC4 020555Z 11007KT 25/17 A2998 RMK A01 T02470167  RH  061%=      5-min Rain = 0
KMC4 020556Z 12007KT 25/17 A2998 RMK A01 T02470167  RH  061%=      5-min Rain = 0
KMC4 020557Z 11006KT 25/17 A2998 RMK A01 T02470166  RH  061%=      5-min Rain = 0
KMC4 020558Z 11006KT 25/17 A2998 RMK A01 T02480167  RH  061%=      5-min Rain = 0
KMC4 020559Z 12007KT 25/17 A2998 RMK A01 T02470166  RH  061%=      5-min Rain = 0
KMC4 020600Z 12007KT 25/17 A2998 RMK A01 T02480167  RH  061%=      5-min Rain = 0
KMC4 020601Z 12006KT 25/17 A2998 RMK A01 T02470166  RH  061%=      5-min Rain = 0
KMC4 020602Z 12007KT 25/17 A2998 RMK A01 T02480166  RH  061%=      5-min Rain = 0
KMC4 020603Z 12008KT 25/17 A2998 RMK A01 T02470166  RH  061%=      5-min Rain = 0
KMC4 020604Z 11008KT 25/17 A2998 RMK A01 T02470166  RH  061%=      5-min Rain = 0
KMC4 020605Z 12009KT 25/17 A2998 RMK A01 T02470166  RH  060%=      5-min Rain = 0
KMC4 020606Z 11009KT 25/17 A2998 RMK A01 T02480166  RH  060%=      5-min Rain = 0
KMC4 020607Z 12008KT 25/17 A2998 RMK A01 T02490165  RH  060%=      5-min Rain = 0
KMC4 020608Z 12008KT 25/17 A2998 RMK A01 T02490166  RH  060%=      5-min Rain = 0
KMC4 020609Z 12011KT 25/17 A2998 RMK A01 T02490165  RH  060%=      5-min Rain = 0
KMC4 020610Z 12009KT 25/17 A2998 RMK A01 T02490165  RH  060%=      5-min Rain = 0
KMC4 020611Z 12008KT 25/17 A2998 RMK A01 T02490165  RH  059%=      5-min Rain = 0
KMC4 020612Z 13009KT 25/17 A2998 RMK A01 T02490165  RH  059%=      5-min Rain = 0
KMC4 020613Z 12009KT 25/17 A2998 RMK A01 T02490165  RH  059%=      5-min Rain = 0
KMC4 020614Z 12009KT 25/17 A2998 RMK A01 T02490165  RH  059%=      5-min Rain = 0
KMC4 020615Z 13008KT 25/17 A2998 RMK A01 T02490165  RH  059%=      5-min Rain = 0
KMC4 020616Z 13008KT 25/17 A2998 RMK A01 T02490165  RH  059%=      5-min Rain = 0
KMC4 020617Z 13008KT 25/17 A2998 RMK A01 T02490165  RH  059%=      5-min Rain = 0
KMC4 020618Z 13007KT 25/17 A2998 RMK A01 T02490165  RH  059%=      5-min Rain = 0
KMC4 020619Z 13008KT 25/17 A2998 RMK A01 T02490165  RH  059%=      5-min Rain = 0
KMC4 020620Z 13007KT 25/17 A2998 RMK A01 T02490165  RH  060%=      5-min Rain = 0
KMC4 020621Z 13009KT 25/17 A2998 RMK A01 T02480165  RH  060%=      5-min Rain = 0
KMC4 020622Z 13009KT 25/17 A2998 RMK A01 T02480165  RH  060%=      5-min Rain = 0
KMC4 020623Z 13009KT 25/16 A2998 RMK A01 T02480164  RH  060%=      5-min Rain = 0
KMC4 020624Z 13009KT 25/17 A2998 RMK A01 T02480165  RH  060%=      5-min Rain = 0
KMC4 020625Z 14008KT 25/16 A2998 RMK A01 T02480164  RH  060%=      5-min Rain = 0
KMC4 020626Z 14010KT 25/17 A2998 RMK A01 T02480165  RH  060%=      5-min Rain = 0
KMC4 020627Z 14010KT 25/17 A2998 RMK A01 T02480165  RH  060%=      5-min Rain = 0
KMC4 020628Z 13010KT 25/16 A2998 RMK A01 T02470164  RH  060%=      5-min Rain = 0
KMC4 020629Z 13010KT 25/17 A2998 RMK A01 T02470165  RH  060%=      5-min Rain = 0
KMC4 020630Z 12010KT 25/17 A2998 RMK A01 T02480165  RH  060%=      5-min Rain = 0
KMC4 020631Z 12009KT 25/17 A2998 RMK A01 T02470165  RH  060%=      5-min Rain = 0
KMC4 020632Z 12012KT 25/17 A2998 RMK A01 T02470166  RH  060%=      5-min Rain = 0
KMC4 020633Z 13010KT 25/17 A2998 RMK A01 T02470166  RH  061%=      5-min Rain = 0
KMC4 020634Z 13010KT 25/17 A2998 RMK A01 T02470166  RH  060%=      5-min Rain = 0
KMC4 020635Z 13011KT 25/17 A2998 RMK A01 T02480166  RH  061%=      5-min Rain = 0
KMC4 020636Z 12009KT 25/17 A2998 RMK A01 T02470167  RH  061%=      5-min Rain = 0
KMC4 020637Z 12010KT 25/17 A2998 RMK A01 T02470166  RH  061%=      5-min Rain = 0
KMC4 020638Z 13012KT 25/17 A2997 RMK A01 T02470166  RH  061%=      5-min Rain = 0
KMC4 020639Z 13011KT 25/17 A2998 RMK A01 T02470166  RH  060%=      5-min Rain = 0
KMC4 020640Z 14012KT 25/17 A2998 RMK A01 T02480166  RH  060%=      5-min Rain = 0
KMC4 020641Z 13012KT 25/17 A2998 RMK A01 T02480166  RH  060%=      5-min Rain = 0
KMC4 020642Z 14011KT 25/17 A2998 RMK A01 T02480166  RH  060%=      5-min Rain = 0
KMC4 020643Z 14010KT 25/17 A2998 RMK A01 T02480165  RH  060%=      5-min Rain = 0
KMC4 020644Z 13008KT 25/17 A2997 RMK A01 T02480165  RH  060%=      5-min Rain = 0
KMC4 020645Z 14009KT 25/17 A2997 RMK A01 T02480165  RH  060%=      5-min Rain = 0
KMC4 020646Z 14009KT 25/16 A2997 RMK A01 T02470164  RH  060%=      5-min Rain = 0
KMC4 020647Z 14011KT 25/16 A2997 RMK A01 T02470164  RH  060%=      5-min Rain = 0
KMC4 020648Z 15011KT 25/16 A2997 RMK A01 T02460164  RH  060%=      5-min Rain = 0
KMC4 020649Z 15009KT 25/16 A2998 RMK A01 T02460164  RH  060%=      5-min Rain = 0
KMC4 020650Z 15011KT 25/16 A2998 RMK A01 T02460164  RH  060%=      5-min Rain = 0
KMC4 020651Z 14011KT 25/16 A2998 RMK A01 T02460164  RH  061%=      5-min Rain = 0
KMC4 020652Z 15010KT 25/17 A2997 RMK A01 T02460165  RH  061%=      5-min Rain = 0
KMC4 020653Z 14010KT 25/16 A2997 RMK A01 T02450164  RH  061%=      5-min Rain = 0
KMC4 020654Z 15009KT 25/17 A2997 RMK A01 T02450165  RH  061%=      5-min Rain = 0
KMC4 020655Z 14013KT 25/17 A2997 RMK A01 T02450165  RH  061%=      5-min Rain = 0
KMC4 020656Z 14013KT 25/17 A2997 RMK A01 T02450166  RH  061%=      5-min Rain = 0
KMC4 020657Z 14009KT 25/17 A2997 RMK A01 T02450165  RH  061%=      5-min Rain = 0
KMC4 020658Z 14011KT 25/17 A2997 RMK A01 T02450165  RH  061%=      5-min Rain = 0
KMC4 020659Z 15010KT 25/17 A2997 RMK A01 T02450165  RH  061%=      5-min Rain = 0
KMC4 020700Z 15014KT 25/17 A2997 RMK A01 T02450166  RH  061%=      5-min Rain = 0
KMC4 020701Z 15012KT 25/17 A2997 RMK A01 T02450166  RH  061%=      5-min Rain = 0
KMC4 020702Z 14011KT 25/17 A2997 RMK A01 T02450166  RH  061%=      5-min Rain = 0
KMC4 020703Z 15012KT 25/17 A2997 RMK A01 T02450166  RH  061%=      5-min Rain = 0
KMC4 020704Z 15011KT 25/17 A2997 RMK A01 T02450166  RH  061%=      5-min Rain = 0
KMC4 020705Z 16010KT 25/17 A2997 RMK A01 T02450166  RH  061%=      5-min Rain = 0
KMC4 020706Z 15010KT 24/17 A2997 RMK A01 T02440165  RH  061%=      5-min Rain = 0
KMC4 020707Z 15010KT 24/17 A2997 RMK A01 T02440165  RH  061%=      5-min Rain = 0
KMC4 020708Z 15011KT 24/17 A2997 RMK A01 T02440166  RH  062%=      5-min Rain = 0
KMC4 020709Z 15011KT 24/17 A2996 RMK A01 T02440166  RH  062%=      5-min Rain = 0
KMC4 020710Z 15009KT 24/17 A2996 RMK A01 T02440166  RH  062%=      5-min Rain = 0
KMC4 020711Z 15009KT 24/17 A2996 RMK A01 T02440166  RH  062%=      5-min Rain = 0
KMC4 020712Z 15010KT 24/17 A2996 RMK A01 T02440166  RH  062%=      5-min Rain = 0
KMC4 020713Z 15009KT 24/17 A2996 RMK A01 T02440166  RH  062%=      5-min Rain = 0
KMC4 020714Z 15008KT 24/17 A2996 RMK A01 T02440166  RH  062%=      5-min Rain = 0
KMC4 020715Z 15010KT 24/17 A2996 RMK A01 T02440166  RH  062%=      5-min Rain = 0
KMC4 020716Z 14010KT 24/17 A2996 RMK A01 T02430165  RH  062%=      5-min Rain = 0
KMC4 020717Z 14009KT 24/17 A2996 RMK A01 T02430166  RH  062%=      5-min Rain = 0
KMC4 020718Z 14009KT 24/17 A2996 RMK A01 T02430165  RH  062%=      5-min Rain = 0
KMC4 020719Z 14010KT 24/17 A2996 RMK A01 T02430166  RH  062%=      5-min Rain = 0
KMC4 020720Z 14011KT 24/17 A2996 RMK A01 T02430165  RH  062%=      5-min Rain = 0
KMC4 020721Z 14010KT 24/17 A2996 RMK A01 T02430166  RH  062%=      5-min Rain = 0
KMC4 020722Z 14010KT 24/17 A2996 RMK A01 T02440166  RH  062%=      5-min Rain = 0
KMC4 020723Z 15011KT 24/17 A2996 RMK A01 T02440166  RH  062%=      5-min Rain = 0
KMC4 020724Z 14012KT 24/17 A2996 RMK A01 T02440166  RH  062%=      5-min Rain = 0
KMC4 020725Z 15013KT 24/17 A2996 RMK A01 T02440166  RH  062%=      5-min Rain = 0
KMC4 020726Z 14013KT 25/17 A2996 RMK A01 T02450167  RH  062%=      5-min Rain = 0
KMC4 020727Z 15014KT 25/17 A2996 RMK A01 T02450167  RH  062%=      5-min Rain = 0
KMC4 020728Z 15012KT 25/17 A2996 RMK A01 T02460167  RH  061%=      5-min Rain = 0
KMC4 020729Z 15009KT 25/17 A2996 RMK A01 T02460167  RH  061%=      5-min Rain = 0
KMC4 020730Z 15012KT 25/17 A2996 RMK A01 T02460167  RH  061%=      5-min Rain = 0
KMC4 020731Z 16010KT 25/17 A2996 RMK A01 T02460167  RH  062%=      5-min Rain = 0
KMC4 020732Z 15012KT 25/17 A2996 RMK A01 T02450167  RH  062%=      5-min Rain = 0
KMC4 020733Z 15011KT 25/17 A2996 RMK A01 T02460168  RH  062%=      5-min Rain = 0
KMC4 020734Z 15013KT 25/17 A2996 RMK A01 T02460168  RH  062%=      5-min Rain = 0
KMC4 020735Z 15012KT 25/17 A2996 RMK A01 T02450168  RH  062%=      5-min Rain = 0
KMC4 020736Z 15013KT 25/17 A2996 RMK A01 T02460168  RH  062%=      5-min Rain = 0
KMC4 020737Z 14013KT 25/17 A2996 RMK A01 T02460169  RH  062%=      5-min Rain = 0
KMC4 020738Z 15011KT 25/17 A2996 RMK A01 T02460168  RH  062%=      5-min Rain = 0
KMC4 020739Z 15013KT 25/17 A2996 RMK A01 T02460169  RH  062%=      5-min Rain = 0
KMC4 020740Z 15011KT 25/17 A2996 RMK A01 T02460169  RH  062%=      5-min Rain = 0
KMC4 020741Z 15012KT 25/17 A2996 RMK A01 T02460169  RH  062%=      5-min Rain = 0
KMC4 020742Z 15011KT 25/17 A2996 RMK A01 T02470170  RH  062%=      5-min Rain = 0
KMC4 020743Z 14012KT 25/17 A2996 RMK A01 T02470170  RH  062%=      5-min Rain = 0
KMC4 020744Z 15013KT 25/17 A2996 RMK A01 T02460171  RH  063%=      5-min Rain = 0
KMC4 020745Z 15012KT 25/17 A2996 RMK A01 T02460171  RH  063%=      5-min Rain = 0
KMC4 020746Z 15011KT 25/17 A2996 RMK A01 T02460171  RH  063%=      5-min Rain = 0
KMC4 020747Z 15012KT 25/17 A2996 RMK A01 T02470171  RH  063%=      5-min Rain = 0
KMC4 020748Z 15012KT 25/17 A2995 RMK A01 T02460171  RH  063%=      5-min Rain = 0
KMC4 020749Z 16012KT 25/17 A2995 RMK A01 T02460171  RH  063%=      5-min Rain = 0
KMC4 020750Z 16012KT 25/17 A2996 RMK A01 T02460172  RH  063%=      5-min Rain = 0
KMC4 020751Z 16012KT 25/17 A2996 RMK A01 T02470172  RH  063%=      5-min Rain = 0
KMC4 020752Z 15013KT 25/17 A2996 RMK A01 T02460172  RH  063%=      5-min Rain = 0
KMC4 020753Z 15010KT 25/17 A2996 RMK A01 T02460172  RH  063%=      5-min Rain = 0
KMC4 020754Z 15011KT 25/17 A2996 RMK A01 T02460172  RH  063%=      5-min Rain = 0
KMC4 020755Z 16010KT 25/17 A2996 RMK A01 T02460173  RH  063%=      5-min Rain = 0
KMC4 020756Z 16009KT 25/17 A2996 RMK A01 T02460173  RH  064%=      5-min Rain = 0
KMC4 020757Z 17009KT 25/17 A2996 RMK A01 T02460173  RH  064%=      5-min Rain = 0
KMC4 020758Z 16010KT 25/17 A2995 RMK A01 T02460173  RH  064%=      5-min Rain = 0
KMC4 020759Z 16010KT 25/17 A2995 RMK A01 T02460173  RH  064%=      5-min Rain = 0
KMC4 020800Z 16009KT 25/17 A2995 RMK A01 T02450173  RH  064%=      5-min Rain = 0
KMC4 020801Z 16010KT 25/17 A2995 RMK A01 T02450174  RH  064%=      5-min Rain = 0
KMC4 020802Z 16009KT 25/17 A2996 RMK A01 T02450174  RH  065%=      5-min Rain = 0
KMC4 020803Z 15009KT 25/17 A2996 RMK A01 T02450174  RH  065%=      5-min Rain = 0
KMC4 020804Z 16007KT 25/17 A2996 RMK A01 T02450174  RH  065%=      5-min Rain = 0
KMC4 020805Z 16007KT 25/17 A2996 RMK A01 T02450174  RH  065%=      5-min Rain = 0
KMC4 020806Z 16008KT 24/17 A2996 RMK A01 T02440174  RH  065%=      5-min Rain = 0
KMC4 020807Z 16007KT 24/17 A2995 RMK A01 T02440174  RH  065%=      5-min Rain = 0
KMC4 020808Z 16008KT 24/17 A2996 RMK A01 T02440174  RH  065%=      5-min Rain = 0
KMC4 020809Z 16008KT 24/18 A2996 RMK A01 T02440175  RH  065%=      5-min Rain = 0
KMC4 020810Z 16010KT 24/18 A2996 RMK A01 T02440175  RH  065%=      5-min Rain = 0
KMC4 020811Z 16010KT 24/18 A2996 RMK A01 T02440175  RH  066%=      5-min Rain = 0
KMC4 020812Z 17009KT 24/18 A2996 RMK A01 T02440175  RH  066%=      5-min Rain = 0
KMC4 020813Z 16009KT 24/18 A2996 RMK A01 T02430175  RH  066%=      5-min Rain = 0
KMC4 020814Z 16010KT 24/18 A2996 RMK A01 T02440175  RH  066%=      5-min Rain = 0
KMC4 020815Z 16010KT 24/18 A2996 RMK A01 T02440176  RH  066%=      5-min Rain = 0
KMC4 020816Z 16008KT 24/18 A2996 RMK A01 T02440175  RH  066%=      5-min Rain = 0
KMC4 020817Z 17008KT 24/18 A2996 RMK A01 T02440176  RH  066%=      5-min Rain = 0
KMC4 020818Z 16009KT 24/18 A2996 RMK A01 T02440176  RH  066%=      5-min Rain = 0
KMC4 020819Z 17008KT 24/18 A2996 RMK A01 T02440176  RH  066%=      5-min Rain = 0
KMC4 020820Z 17006KT 24/18 A2996 RMK A01 T02440176  RH  066%=      5-min Rain = 0
KMC4 020821Z 17007KT 24/18 A2996 RMK A01 T02430176  RH  066%=      5-min Rain = 0
KMC4 020822Z 17008KT 24/18 A2996 RMK A01 T02430177  RH  067%=      5-min Rain = 0
KMC4 020823Z 16007KT 24/18 A2996 RMK A01 T02430177  RH  067%=      5-min Rain = 0
KMC4 020824Z 16008KT 24/18 A2996 RMK A01 T02430177  RH  067%=      5-min Rain = 0
KMC4 020825Z 17008KT 24/18 A2996 RMK A01 T02430178  RH  067%=      5-min Rain = 0
KMC4 020826Z 17009KT 24/18 A2996 RMK A01 T02430178  RH  067%=      5-min Rain = 0
KMC4 020827Z 16008KT 24/18 A2996 RMK A01 T02430178  RH  067%=      5-min Rain = 0
KMC4 020828Z 16006KT 24/18 A2996 RMK A01 T02430178  RH  067%=      5-min Rain = 0
KMC4 020829Z 17006KT 24/18 A2996 RMK A01 T02430179  RH  067%=      5-min Rain = 0
KMC4 020830Z 16007KT 24/18 A2996 RMK A01 T02430179  RH  068%=      5-min Rain = 0
KMC4 020831Z 16006KT 24/18 A2996 RMK A01 T02430180  RH  068%=      5-min Rain = 0
KMC4 020832Z 16009KT 24/18 A2996 RMK A01 T02420180  RH  068%=      5-min Rain = 0
KMC4 020833Z 17010KT 24/18 A2996 RMK A01 T02420182  RH  069%=      5-min Rain = 0
KMC4 020834Z 17008KT 24/18 A2996 RMK A01 T02430182  RH  069%=      5-min Rain = 0
KMC4 020835Z 17008KT 24/18 A2996 RMK A01 T02430183  RH  069%=      5-min Rain = 0
KMC4 020836Z 16010KT 24/18 A2996 RMK A01 T02430184  RH  069%=      5-min Rain = 0
KMC4 020837Z 16009KT 24/18 A2996 RMK A01 T02430184  RH  070%=      5-min Rain = 0
KMC4 020838Z 16007KT 24/18 A2996 RMK A01 T02430184  RH  070%=      5-min Rain = 0
KMC4 020839Z 15007KT 24/18 A2996 RMK A01 T02430184  RH  070%=      5-min Rain = 0
KMC4 020840Z 16007KT 24/18 A2996 RMK A01 T02420184  RH  070%=      5-min Rain = 0
KMC4 020841Z 16008KT 24/19 A2996 RMK A01 T02420185  RH  070%=      5-min Rain = 0
KMC4 020842Z 15007KT 24/19 A2996 RMK A01 T02420186  RH  071%=      5-min Rain = 0
KMC4 020843Z 14007KT 24/19 A2996 RMK A01 T02420186  RH  071%=      5-min Rain = 0
KMC4 020844Z 15006KT 24/19 A2996 RMK A01 T02420186  RH  071%=      5-min Rain = 0
KMC4 020845Z 15009KT 24/19 A2996 RMK A01 T02410187  RH  071%=      5-min Rain = 0
KMC4 020846Z 14007KT 24/19 A2996 RMK A01 T02410187  RH  072%=      5-min Rain = 0
KMC4 020847Z 14007KT 24/19 A2996 RMK A01 T02410187  RH  072%=      5-min Rain = 0
KMC4 020848Z 15007KT 24/19 A2996 RMK A01 T02410188  RH  072%=      5-min Rain = 0
KMC4 020849Z 15007KT 24/19 A2996 RMK A01 T02410188  RH  072%=      5-min Rain = 0
KMC4 020850Z 16005KT 24/19 A2996 RMK A01 T02410188  RH  072%=      5-min Rain = 0
KMC4 020851Z 16006KT 24/19 A2996 RMK A01 T02410188  RH  072%=      5-min Rain = 0
KMC4 020852Z 15005KT 24/19 A2996 RMK A01 T02410188  RH  072%=      5-min Rain = 0
KMC4 020853Z 15005KT 24/19 A2996 RMK A01 T02400188  RH  072%=      5-min Rain = 0
KMC4 020854Z 16004KT 24/19 A2996 RMK A01 T02400188  RH  073%=      5-min Rain = 0
KMC4 020855Z 14003KT 24/19 A2996 RMK A01 T02400188  RH  073%=      5-min Rain = 0
KMC4 020856Z 15003KT 24/19 A2996 RMK A01 T02400187  RH  072%=      5-min Rain = 0
KMC4 020857Z 15005KT 24/19 A2996 RMK A01 T02390187  RH  072%=      5-min Rain = 0
KMC4 020858Z 14004KT 24/19 A2996 RMK A01 T02390187  RH  073%=      5-min Rain = 0
KMC4 020859Z 14004KT 24/19 A2996 RMK A01 T02390187  RH  073%=      5-min Rain = 0
KMC4 020900Z 13004KT 24/19 A2995 RMK A01 T02390187  RH  073%=      5-min Rain = 0
KMC4 020901Z 14004KT 24/19 A2995 RMK A01 T02390187  RH  073%=      5-min Rain = 0
KMC4 020902Z 15006KT 24/19 A2995 RMK A01 T02380187  RH  073%=      5-min Rain = 0
KMC4 020903Z 13006KT 24/19 A2995 RMK A01 T02380187  RH  073%=      5-min Rain = 0
KMC4 020904Z 13005KT 24/19 A2995 RMK A01 T02390187  RH  073%=      5-min Rain = 0
KMC4 020905Z 12006KT 24/19 A2995 RMK A01 T02390187  RH  073%=      5-min Rain = 0
KMC4 020906Z 12005KT 24/19 A2995 RMK A01 T02390187  RH  073%=      5-min Rain = 0
KMC4 020907Z 12005KT 24/19 A2995 RMK A01 T02390187  RH  073%=      5-min Rain = 0
KMC4 020908Z 12006KT 24/19 A2995 RMK A01 T02380187  RH  073%=      5-min Rain = 0
KMC4 020909Z 12007KT 24/19 A2995 RMK A01 T02380187  RH  073%=      5-min Rain = 0
KMC4 020910Z 13006KT 24/19 A2995 RMK A01 T02380187  RH  073%=      5-min Rain = 0
KMC4 020911Z 12006KT 24/19 A2995 RMK A01 T02380187  RH  073%=      5-min Rain = 0
KMC4 020912Z 12006KT 24/19 A2995 RMK A01 T02380188  RH  073%=      5-min Rain = 0
KMC4 020913Z 12007KT 24/19 A2995 RMK A01 T02380188  RH  073%=      5-min Rain = 0
KMC4 020914Z 12007KT 24/19 A2995 RMK A01 T02380188  RH  073%=      5-min Rain = 0
KMC4 020915Z 12007KT 24/19 A2995 RMK A01 T02380188  RH  073%=      5-min Rain = 0
KMC4 020916Z 12007KT 24/19 A2995 RMK A01 T02380188  RH  073%=      5-min Rain = 0
KMC4 020917Z 12007KT 24/19 A2995 RMK A01 T02380187  RH  073%=      5-min Rain = 0
KMC4 020918Z 13007KT 24/19 A2995 RMK A01 T02380187  RH  073%=      5-min Rain = 0
KMC4 020919Z 13009KT 24/19 A2995 RMK A01 T02380187  RH  073%=      5-min Rain = 0
KMC4 020920Z 14007KT 24/19 A2995 RMK A01 T02380187  RH  073%=      5-min Rain = 0
KMC4 020921Z 14007KT 24/19 A2995 RMK A01 T02380186  RH  073%=      5-min Rain = 0
KMC4 020922Z 15007KT 24/19 A2995 RMK A01 T02380186  RH  073%=      5-min Rain = 0
KMC4 020923Z 15006KT 24/19 A2995 RMK A01 T02380186  RH  073%=      5-min Rain = 0
KMC4 020924Z 15006KT 24/19 A2995 RMK A01 T02380186  RH  073%=      5-min Rain = 0
KMC4 020925Z 15006KT 24/19 A2995 RMK A01 T02380186  RH  073%=      5-min Rain = 0
KMC4 020926Z 15005KT 24/19 A2995 RMK A01 T02380186  RH  073%=      5-min Rain = 0
KMC4 020927Z 14006KT 24/19 A2995 RMK A01 T02370186  RH  073%=      5-min Rain = 0
KMC4 020928Z 14006KT 24/19 A2995 RMK A01 T02370186  RH  073%=      5-min Rain = 0
KMC4 020929Z 15005KT 24/19 A2995 RMK A01 T02370186  RH  073%=      5-min Rain = 0
KMC4 020930Z 15005KT 24/19 A2995 RMK A01 T02370185  RH  073%=      5-min Rain = 0
KMC4 020931Z 15005KT 24/19 A2995 RMK A01 T02360185  RH  073%=      5-min Rain = 0
KMC4 020932Z 15005KT 24/19 A2995 RMK A01 T02360185  RH  073%=      5-min Rain = 0
KMC4 020933Z 15005KT 24/19 A2995 RMK A01 T02360185  RH  073%=      5-min Rain = 0
KMC4 020934Z 15005KT 24/19 A2995 RMK A01 T02360185  RH  073%=      5-min Rain = 0
KMC4 020935Z 15004KT 24/19 A2995 RMK A01 T02350185  RH  073%=      5-min Rain = 0
KMC4 020936Z 15004KT 24/19 A2995 RMK A01 T02350185  RH  073%=      5-min Rain = 0
KMC4 020937Z 16003KT 24/19 A2995 RMK A01 T02350185  RH  073%=      5-min Rain = 0
KMC4 020938Z 17005KT 24/19 A2995 RMK A01 T02350185  RH  073%=      5-min Rain = 0
KMC4 020939Z 16005KT 24/19 A2995 RMK A01 T02350185  RH  073%=      5-min Rain = 0
KMC4 020940Z 17005KT 24/19 A2995 RMK A01 T02360185  RH  073%=      5-min Rain = 0
KMC4 020941Z 17004KT 24/18 A2995 RMK A01 T02360184  RH  073%=      5-min Rain = 0
KMC4 020942Z 17004KT 24/18 A2995 RMK A01 T02360184  RH  073%=      5-min Rain = 0
KMC4 020943Z 19004KT 24/19 A2995 RMK A01 T02370185  RH  073%=      5-min Rain = 0
KMC4 020944Z 19006KT 24/19 A2995 RMK A01 T02360185  RH  073%=      5-min Rain = 0
KMC4 020945Z 19005KT 24/18 A2995 RMK A01 T02360184  RH  073%=      5-min Rain = 0
KMC4 020946Z 19006KT 24/18 A2995 RMK A01 T02370184  RH  072%=      5-min Rain = 0
KMC4 020947Z 18006KT 24/19 A2995 RMK A01 T02380185  RH  072%=      5-min Rain = 0
KMC4 020948Z 19006KT 24/19 A2995 RMK A01 T02380185  RH  072%=      5-min Rain = 0
KMC4 020949Z 19006KT 24/19 A2995 RMK A01 T02380185  RH  072%=      5-min Rain = 0
KMC4 020950Z 19006KT 24/18 A2995 RMK A01 T02390184  RH  072%=      5-min Rain = 0
KMC4 020951Z 18007KT 24/19 A2995 RMK A01 T02390185  RH  072%=      5-min Rain = 0
KMC4 020952Z 18008KT 24/19 A2995 RMK A01 T02400185  RH  071%=      5-min Rain = 0
KMC4 020953Z 17008KT 24/19 A2995 RMK A01 T02410185  RH  071%=      5-min Rain = 0
KMC4 020954Z 17007KT 24/19 A2995 RMK A01 T02420185  RH  071%=      5-min Rain = 0
KMC4 020955Z 18007KT 24/19 A2996 RMK A01 T02420185  RH  070%=      5-min Rain = 0
KMC4 020956Z 17009KT 24/19 A2995 RMK A01 T02430185  RH  070%=      5-min Rain = 0
KMC4 020957Z 17007KT 24/19 A2995 RMK A01 T02430185  RH  070%=      5-min Rain = 0
KMC4 020958Z 17007KT 24/19 A2995 RMK A01 T02430185  RH  070%=      5-min Rain = 0
KMC4 020959Z 17008KT 24/19 A2995 RMK A01 T02430185  RH  070%=      5-min Rain = 0
KMC4 021000Z 17009KT 24/19 A2995 RMK A01 T02430185  RH  070%=      5-min Rain = 0
KMC4 021001Z 17009KT 24/19 A2995 RMK A01 T02430185  RH  070%=      5-min Rain = 0
KMC4 021002Z 16009KT 24/19 A2995 RMK A01 T02430185  RH  070%=      5-min Rain = 0
KMC4 021003Z 16009KT 24/18 A2995 RMK A01 T02440184  RH  069%=      5-min Rain = 0
KMC4 021004Z 15010KT 24/19 A2995 RMK A01 T02440185  RH  069%=      5-min Rain = 0
KMC4 021005Z 16010KT 24/18 A2996 RMK A01 T02440184  RH  069%=      5-min Rain = 0
KMC4 021006Z 16007KT 24/18 A2996 RMK A01 T02440184  RH  069%=      5-min Rain = 0
KMC4 021007Z 16008KT 24/18 A2995 RMK A01 T02440184  RH  069%=      5-min Rain = 0
KMC4 021008Z 16010KT 24/19 A2996 RMK A01 T02440185  RH  070%=      5-min Rain = 0
KMC4 021009Z 16009KT 24/18 A2995 RMK A01 T02430184  RH  070%=      5-min Rain = 0
KMC4 021010Z 16009KT 24/18 A2996 RMK A01 T02430184  RH  070%=      5-min Rain = 0
KMC4 021011Z 16009KT 24/19 A2996 RMK A01 T02440185  RH  070%=      5-min Rain = 0
KMC4 021012Z 16007KT 24/19 A2996 RMK A01 T02440185  RH  070%=      5-min Rain = 0
KMC4 021013Z 17008KT 24/19 A2996 RMK A01 T02430185  RH  070%=      5-min Rain = 0
KMC4 021014Z 16009KT 24/18 A2996 RMK A01 T02420184  RH  070%=      5-min Rain = 0
KMC4 021015Z 16010KT 24/19 A2996 RMK A01 T02420185  RH  070%=      5-min Rain = 0
KMC4 021016Z 16009KT 24/19 A2996 RMK A01 T02420185  RH  070%=      5-min Rain = 0
KMC4 021017Z 16009KT 24/19 A2996 RMK A01 T02430185  RH  070%=      5-min Rain = 0
KMC4 021018Z 17009KT 24/19 A2996 RMK A01 T02430185  RH  070%=      5-min Rain = 0
KMC4 021019Z 17007KT 24/19 A2996 RMK A01 T02420185  RH  070%=      5-min Rain = 0
KMC4 021020Z 16009KT 24/19 A2996 RMK A01 T02420185  RH  071%=      5-min Rain = 0
KMC4 021021Z 16009KT 24/19 A2996 RMK A01 T02410186  RH  071%=      5-min Rain = 0
KMC4 021022Z 17010KT 24/19 A2996 RMK A01 T02420186  RH  071%=      5-min Rain = 0
KMC4 021023Z 17011KT 24/19 A2996 RMK A01 T02410186  RH  071%=      5-min Rain = 0
KMC4 021024Z 17010KT 24/19 A2996 RMK A01 T02420186  RH  071%=      5-min Rain = 0
KMC4 021025Z 17008KT 24/19 A2996 RMK A01 T02420186  RH  071%=      5-min Rain = 0
KMC4 021026Z 17009KT 24/19 A2995 RMK A01 T02420186  RH  071%=      5-min Rain = 0
KMC4 021027Z 17010KT 24/19 A2995 RMK A01 T02410187  RH  071%=      5-min Rain = 0
KMC4 021028Z 16009KT 24/19 A2995 RMK A01 T02410187  RH  071%=      5-min Rain = 0
KMC4 021029Z 17009KT 24/19 A2995 RMK A01 T02410186  RH  072%=      5-min Rain = 0
KMC4 021030Z 17012KT 24/19 A2995 RMK A01 T02410187  RH  072%=      5-min Rain = 0
KMC4 021031Z 17011KT 24/19 A2996 RMK A01 T02410187  RH  072%=      5-min Rain = 0
KMC4 021032Z 17011KT 24/19 A2996 RMK A01 T02410187  RH  072%=      5-min Rain = 0
KMC4 021033Z 17010KT 24/19 A2996 RMK A01 T02410187  RH  072%=      5-min Rain = 0
KMC4 021034Z 17009KT 24/19 A2996 RMK A01 T02410187  RH  072%=      5-min Rain = 0
KMC4 021035Z 17009KT 24/19 A2996 RMK A01 T02400187  RH  072%=      5-min Rain = 0
KMC4 021036Z 17007KT 24/19 A2995 RMK A01 T02400187  RH  072%=      5-min Rain = 0
KMC4 021037Z 17007KT 24/19 A2995 RMK A01 T02400187  RH  072%=      5-min Rain = 0
KMC4 021038Z 17007KT 24/19 A2995 RMK A01 T02390186  RH  072%=      5-min Rain = 0
KMC4 021039Z 18007KT 24/19 A2995 RMK A01 T02390186  RH  072%=      5-min Rain = 0
KMC4 021040Z 18007KT 24/19 A2995 RMK A01 T02390186  RH  073%=      5-min Rain = 0
KMC4 021041Z 18006KT 24/19 A2996 RMK A01 T02380186  RH  073%=      5-min Rain = 0
KMC4 021042Z 19006KT 24/19 A2996 RMK A01 T02380186  RH  073%=      5-min Rain = 0
KMC4 021043Z 19006KT 24/19 A2996 RMK A01 T02370186  RH  073%=      5-min Rain = 0
KMC4 021044Z 19004KT 24/19 A2996 RMK A01 T02360185  RH  073%=      5-min Rain = 0
KMC4 021045Z 19005KT 24/19 A2996 RMK A01 T02360185  RH  073%=      5-min Rain = 0
KMC4 021046Z 19005KT 24/19 A2996 RMK A01 T02350185  RH  074%=      5-min Rain = 0
KMC4 021047Z 19007KT 23/19 A2996 RMK A01 T02340185  RH  074%=      5-min Rain = 0
KMC4 021048Z 19009KT 23/19 A2996 RMK A01 T02340186  RH  074%=      5-min Rain = 0
KMC4 021049Z 19008KT 24/19 A2996 RMK A01 T02350186  RH  074%=      5-min Rain = 0
KMC4 021050Z 20006KT 24/19 A2996 RMK A01 T02360187  RH  074%=      5-min Rain = 0
KMC4 021051Z 19007KT 24/19 A2996 RMK A01 T02360186  RH  074%=      5-min Rain = 0
KMC4 021052Z 18009KT 24/19 A2996 RMK A01 T02360187  RH  074%=      5-min Rain = 0
KMC4 021053Z 19010KT 24/19 A2996 RMK A01 T02360187  RH  074%=      5-min Rain = 0
KMC4 021054Z 18009KT 24/19 A2996 RMK A01 T02360187  RH  074%=      5-min Rain = 0
KMC4 021055Z 18007KT 24/19 A2996 RMK A01 T02360187  RH  074%=      5-min Rain = 0
KMC4 021056Z 18009KT 24/19 A2996 RMK A01 T02360187  RH  074%=      5-min Rain = 0
KMC4 021057Z 18007KT 24/19 A2996 RMK A01 T02360187  RH  074%=      5-min Rain = 0
KMC4 021058Z 18007KT 24/19 A2996 RMK A01 T02360187  RH  074%=      5-min Rain = 0
KMC4 021059Z 18007KT 24/19 A2996 RMK A01 T02350187  RH  074%=      5-min Rain = 0
KMC4 021100Z 18008KT 24/19 A2996 RMK A01 T02350187  RH  074%=      5-min Rain = 0
KMC4 021101Z 18007KT 24/19 A2996 RMK A01 T02350187  RH  075%=      5-min Rain = 0
KMC4 021102Z 18008KT 23/19 A2996 RMK A01 T02340187  RH  075%=      5-min Rain = 0
KMC4 021103Z 18009KT 23/19 A2996 RMK A01 T02340187  RH  075%=      5-min Rain = 0
KMC4 021104Z 18010KT 23/19 A2996 RMK A01 T02340187  RH  075%=      5-min Rain = 0
KMC4 021105Z 18010KT 24/19 A2996 RMK A01 T02350187  RH  075%=      5-min Rain = 0
KMC4 021106Z 18009KT 24/19 A2996 RMK A01 T02350187  RH  075%=      5-min Rain = 0
KMC4 021107Z 18010KT 24/19 A2996 RMK A01 T02350187  RH  075%=      5-min Rain = 0
KMC4 021108Z 19009KT 24/19 A2996 RMK A01 T02350187  RH  075%=      5-min Rain = 0
KMC4 021109Z 18010KT 24/19 A2996 RMK A01 T02350187  RH  075%=      5-min Rain = 0
KMC4 021110Z 18008KT 24/19 A2996 RMK A01 T02350187  RH  075%=      5-min Rain = 0
KMC4 021111Z 19010KT 24/19 A2996 RMK A01 T02350187  RH  075%=      5-min Rain = 0
KMC4 021112Z 19008KT 24/19 A2996 RMK A01 T02350187  RH  075%=      5-min Rain = 0
KMC4 021113Z 18009KT 23/19 A2996 RMK A01 T02340187  RH  074%=      5-min Rain = 0
KMC4 021114Z 18008KT 23/19 A2996 RMK A01 T02340187  RH  074%=      5-min Rain = 0
KMC4 021115Z 19008KT 23/19 A2996 RMK A01 T02340186  RH  074%=      5-min Rain = 0
KMC4 021116Z 18008KT 23/19 A2996 RMK A01 T02340187  RH  075%=      5-min Rain = 0
KMC4 021117Z 19007KT 23/19 A2996 RMK A01 T02340186  RH  075%=      5-min Rain = 0
KMC4 021118Z 19007KT 23/19 A2996 RMK A01 T02330186  RH  075%=      5-min Rain = 0
KMC4 021119Z 19007KT 23/19 A2996 RMK A01 T02330186  RH  075%=      5-min Rain = 0
KMC4 021120Z 19007KT 23/19 A2996 RMK A01 T02330186  RH  075%=      5-min Rain = 0
KMC4 021121Z 20007KT 23/19 A2996 RMK A01 T02330186  RH  075%=      5-min Rain = 0
KMC4 021122Z 19007KT 23/19 A2996 RMK A01 T02320186  RH  075%=      5-min Rain = 0
KMC4 021123Z 20006KT 23/19 A2996 RMK A01 T02320186  RH  075%=      5-min Rain = 0
KMC4 021124Z 19007KT 23/19 A2996 RMK A01 T02320186  RH  075%=      5-min Rain = 0
KMC4 021125Z 18005KT 23/19 A2996 RMK A01 T02320186  RH  075%=      5-min Rain = 0
KMC4 021126Z 17004KT 23/19 A2996 RMK A01 T02320185  RH  075%=      5-min Rain = 0
KMC4 021127Z 17005KT 23/19 A2996 RMK A01 T02310185  RH  075%=      5-min Rain = 0
KMC4 021128Z 17004KT 23/19 A2996 RMK A01 T02310185  RH  075%=      5-min Rain = 0
KMC4 021129Z 16004KT 23/19 A2996 RMK A01 T02300185  RH  076%=      5-min Rain = 0
KMC4 021130Z 16004KT 23/19 A2996 RMK A01 T02300185  RH  076%=      5-min Rain = 0
KMC4 021131Z 15005KT 23/19 A2996 RMK A01 T02300185  RH  076%=      5-min Rain = 0
KMC4 021132Z 15004KT 23/19 A2996 RMK A01 T02290185  RH  076%=      5-min Rain = 0
KMC4 021133Z 15003KT 23/19 A2996 RMK A01 T02290185  RH  076%=      5-min Rain = 0
KMC4 021134Z 16004KT 23/19 A2996 RMK A01 T02290185  RH  076%=      5-min Rain = 0
KMC4 021135Z 16004KT 23/18 A2997 RMK A01 T02280184  RH  076%=      5-min Rain = 0
KMC4 021136Z 15004KT 23/19 A2997 RMK A01 T02280185  RH  076%=      5-min Rain = 0
KMC4 021137Z 15004KT 23/19 A2997 RMK A01 T02280185  RH  076%=      5-min Rain = 0
KMC4 021138Z 14003KT 23/18 A2997 RMK A01 T02280184  RH  076%=      5-min Rain = 0
KMC4 021139Z 09003KT 23/18 A2997 RMK A01 T02270184  RH  077%=      5-min Rain = 0
KMC4 021140Z 07003KT 23/18 A2997 RMK A01 T02270184  RH  077%=      5-min Rain = 0
KMC4 021141Z 08003KT 23/19 A2996 RMK A01 T02270185  RH  077%=      5-min Rain = 0
KMC4 021142Z 08003KT 23/19 A2996 RMK A01 T02270185  RH  077%=      5-min Rain = 0
KMC4 021143Z 08003KT 23/19 A2996 RMK A01 T02270185  RH  077%=      5-min Rain = 0
KMC4 021144Z 10003KT 23/19 A2996 RMK A01 T02280185  RH  076%=      5-min Rain = 0
KMC4 021145Z 13003KT 23/18 A2996 RMK A01 T02290184  RH  076%=      5-min Rain = 0
KMC4 021146Z 15003KT 23/18 A2996 RMK A01 T02300184  RH  075%=      5-min Rain = 0
KMC4 021147Z 17002KT 23/18 A2996 RMK A01 T02310184  RH  075%=      5-min Rain = 0
KMC4 021148Z 17003KT 23/18 A2996 RMK A01 T02310184  RH  075%=      5-min Rain = 0
KMC4 021149Z 16003KT 23/18 A2997 RMK A01 T02320184  RH  075%=      5-min Rain = 0
KMC4 021150Z 17003KT 23/18 A2997 RMK A01 T02310184  RH  074%=      5-min Rain = 0
KMC4 021151Z 18004KT 23/18 A2997 RMK A01 T02310183  RH  074%=      5-min Rain = 0
KMC4 021152Z 17003KT 23/18 A2997 RMK A01 T02310183  RH  075%=      5-min Rain = 0
KMC4 021153Z 16002KT 23/18 A2997 RMK A01 T02300183  RH  075%=      5-min Rain = 0
KMC4 021154Z 14002KT 23/18 A2997 RMK A01 T02290182  RH  075%=      5-min Rain = 0
KMC4 021155Z 15002KT 23/18 A2997 RMK A01 T02290182  RH  075%=      5-min Rain = 0
KMC4 021156Z 21002KT 23/18 A2997 RMK A01 T02290182  RH  075%=      5-min Rain = 0
KMC4 021157Z 21003KT 23/18 A2997 RMK A01 T02290183  RH  075%=      5-min Rain = 0
KMC4 021158Z 20003KT 23/18 A2997 RMK A01 T02290183  RH  075%=      5-min Rain = 0
KMC4 021159Z 18002KT 23/18 A2997 RMK A01 T02280182  RH  075%=      5-min Rain = 0
KMC4 021200Z 17003KT 23/18 A2997 RMK A01 T02290183  RH  075%=      5-min Rain = 0
KMC4 021201Z 16003KT 23/18 A2997 RMK A01 T02280182  RH  075%=      5-min Rain = 0
KMC4 021202Z 14002KT 23/18 A2997 RMK A01 T02280182  RH  075%=      5-min Rain = 0
KMC4 021203Z 14001KT 23/18 A2997 RMK A01 T02270181  RH  075%=      5-min Rain = 0
KMC4 021204Z 12002KT 23/18 A2997 RMK A01 T02270181  RH  075%=      5-min Rain = 0
KMC4 021205Z 10002KT 23/18 A2997 RMK A01 T02270182  RH  076%=      5-min Rain = 0
KMC4 021206Z 09002KT 23/18 A2997 RMK A01 T02270182  RH  076%=      5-min Rain = 0
KMC4 021207Z 07002KT 23/18 A2997 RMK A01 T02270182  RH  076%=      5-min Rain = 0
KMC4 021208Z 07001KT 23/18 A2997 RMK A01 T02280182  RH  076%=      5-min Rain = 0
KMC4 021209Z 08001KT 23/18 A2997 RMK A01 T02280183  RH  076%=      5-min Rain = 0
KMC4 021210Z 09002KT 23/18 A2997 RMK A01 T02280182  RH  075%=      5-min Rain = 0
KMC4 021211Z 09002KT 23/18 A2997 RMK A01 T02290183  RH  075%=      5-min Rain = 0
KMC4 021212Z 10002KT 23/18 A2997 RMK A01 T02300183  RH  075%=      5-min Rain = 0
KMC4 021213Z 11002KT 23/18 A2997 RMK A01 T02300183  RH  075%=      5-min Rain = 0
KMC4 021214Z 12003KT 23/18 A2997 RMK A01 T02310183  RH  074%=      5-min Rain = 0
KMC4 021215Z 12004KT 23/18 A2997 RMK A01 T02310183  RH  074%=      5-min Rain = 0
KMC4 021216Z 12004KT 23/18 A2997 RMK A01 T02320182  RH  074%=      5-min Rain = 0
KMC4 021217Z 12004KT 23/18 A2997 RMK A01 T02320182  RH  074%=      5-min Rain = 0
KMC4 021218Z 12004KT 23/18 A2997 RMK A01 T02320182  RH  073%=      5-min Rain = 0
KMC4 021219Z 13003KT 23/18 A2998 RMK A01 T02330182  RH  073%=      5-min Rain = 0
KMC4 021220Z 13003KT 23/18 A2998 RMK A01 T02330182  RH  073%=      5-min Rain = 0
KMC4 021221Z 13003KT 23/18 A2998 RMK A01 T02330182  RH  073%=      5-min Rain = 0
KMC4 021222Z 14003KT 23/18 A2998 RMK A01 T02340183  RH  073%=      5-min Rain = 0
KMC4 021223Z 14003KT 23/18 A2998 RMK A01 T02340182  RH  073%=      5-min Rain = 0
KMC4 021224Z 14004KT 24/18 A2998 RMK A01 T02350182  RH  072%=      5-min Rain = 0
KMC4 021225Z 14005KT 24/18 A2998 RMK A01 T02350182  RH  072%=      5-min Rain = 0
KMC4 021226Z 15004KT 24/18 A2998 RMK A01 T02350182  RH  072%=      5-min Rain = 0
KMC4 021227Z 15005KT 24/18 A2998 RMK A01 T02360181  RH  072%=      5-min Rain = 0
KMC4 021228Z 15005KT 24/18 A2998 RMK A01 T02360181  RH  071%=      5-min Rain = 0
KMC4 021229Z 16005KT 24/18 A2998 RMK A01 T02360181  RH  071%=      5-min Rain = 0
KMC4 021230Z 16004KT 24/18 A2998 RMK A01 T02370181  RH  071%=      5-min Rain = 0
KMC4 021231Z 16004KT 24/18 A2998 RMK A01 T02370181  RH  071%=      5-min Rain = 0
KMC4 021232Z 15004KT 24/18 A2999 RMK A01 T02370182  RH  071%=      5-min Rain = 0
KMC4 021233Z 15004KT 24/18 A2999 RMK A01 T02380182  RH  071%=      5-min Rain = 0
KMC4 021234Z 14004KT 24/18 A2999 RMK A01 T02380182  RH  071%=      5-min Rain = 0
KMC4 021235Z 14004KT 24/18 A2999 RMK A01 T02380182  RH  071%=      5-min Rain = 0
KMC4 021236Z 14005KT 24/18 A2999 RMK A01 T02380181  RH  070%=      5-min Rain = 0
KMC4 021237Z 13005KT 24/18 A2999 RMK A01 T02380181  RH  071%=      5-min Rain = 0
KMC4 021238Z 14005KT 24/18 A2999 RMK A01 T02380181  RH  071%=      5-min Rain = 0
KMC4 021239Z 13005KT 24/18 A2999 RMK A01 T02370181  RH  071%=      5-min Rain = 0
KMC4 021240Z 13005KT 24/18 A2999 RMK A01 T02370181  RH  071%=      5-min Rain = 0
KMC4 021241Z 14005KT 24/18 A2999 RMK A01 T02380181  RH  070%=      5-min Rain = 0
KMC4 021242Z 13004KT 24/18 A2999 RMK A01 T02380181  RH  070%=      5-min Rain = 0
KMC4 021243Z 13004KT 24/18 A2999 RMK A01 T02380181  RH  070%=      5-min Rain = 0
KMC4 021244Z 13005KT 24/18 A2999 RMK A01 T02390181  RH  070%=      5-min Rain = 0
KMC4 021245Z 13005KT 24/18 A2999 RMK A01 T02390181  RH  070%=      5-min Rain = 0
KMC4 021246Z 12006KT 24/18 A2999 RMK A01 T02400181  RH  070%=      5-min Rain = 0
KMC4 021247Z 13007KT 24/18 A2999 RMK A01 T02400181  RH  069%=      5-min Rain = 0
KMC4 021248Z 13006KT 24/18 A2999 RMK A01 T02400181  RH  069%=      5-min Rain = 0
KMC4 021249Z 13005KT 24/18 A2999 RMK A01 T02410181  RH  069%=      5-min Rain = 0
KMC4 021250Z 12006KT 24/18 A2999 RMK A01 T02410181  RH  069%=      5-min Rain = 0
KMC4 021251Z 12007KT 24/18 A2999 RMK A01 T02420182  RH  069%=      5-min Rain = 0
KMC4 021252Z 12007KT 24/18 A2999 RMK A01 T02420182  RH  069%=      5-min Rain = 0
KMC4 021253Z 12007KT 24/18 A2999 RMK A01 T02420182  RH  069%=      5-min Rain = 0
KMC4 021254Z 12007KT 24/18 A2999 RMK A01 T02420182  RH  069%=      5-min Rain = 0
KMC4 021255Z 13007KT 24/18 A30 RMK A01 T02420182  RH  069%=      5-min Rain = 0
KMC4 021256Z 12007KT 24/18 A30 RMK A01 T02420183  RH  069%=      5-min Rain = 0
KMC4 021257Z 12006KT 24/18 A30 RMK A01 T02420183  RH  069%=      5-min Rain = 0
KMC4 021258Z 13008KT 24/18 A30 RMK A01 T02420182  RH  069%=      5-min Rain = 0
KMC4 021259Z 13006KT 24/18 A30 RMK A01 T02420182  RH  069%=      5-min Rain = 0
KMC4 021300Z 12006KT 24/18 A30 RMK A01 T02420183  RH  069%=      5-min Rain = 0
KMC4 021301Z 12007KT 24/18 A30 RMK A01 T02430183  RH  069%=      5-min Rain = 0
KMC4 021302Z 13007KT 24/18 A30 RMK A01 T02430183  RH  069%=      5-min Rain = 0
KMC4 021303Z 13007KT 24/18 A30 RMK A01 T02430184  RH  070%=      5-min Rain = 0
KMC4 021304Z 12006KT 24/18 A30 RMK A01 T02430184  RH  070%=      5-min Rain = 0
KMC4 021305Z 12007KT 24/18 A30 RMK A01 T02430184  RH  070%=      5-min Rain = 0
KMC4 021306Z 12008KT 24/18 A3001 RMK A01 T02420184  RH  070%=      5-min Rain = 0
KMC4 021307Z 12007KT 24/18 A3001 RMK A01 T02420184  RH  070%=      5-min Rain = 0
KMC4 021308Z 13009KT 24/18 A3001 RMK A01 T02420183  RH  070%=      5-min Rain = 0
KMC4 021309Z 13010KT 24/18 A3001 RMK A01 T02420183  RH  069%=      5-min Rain = 0
KMC4 021310Z 12010KT 24/18 A3001 RMK A01 T02420182  RH  069%=      5-min Rain = 0
KMC4 021311Z 13009KT 24/18 A3001 RMK A01 T02420182  RH  069%=      5-min Rain = 0
KMC4 021312Z 14011KT 24/18 A3001 RMK A01 T02420182  RH  069%=      5-min Rain = 0
KMC4 021313Z 13009KT 24/18 A3001 RMK A01 T02420182  RH  069%=      5-min Rain = 0
KMC4 021314Z 12010KT 24/18 A3001 RMK A01 T02430182  RH  069%=      5-min Rain = 0
KMC4 021315Z 13010KT 24/18 A3001 RMK A01 T02440182  RH  068%=      5-min Rain = 0
KMC4 021316Z 13009KT 24/18 A3001 RMK A01 T02440183  RH  068%=      5-min Rain = 0
KMC4 021317Z 14009KT 25/18 A3001 RMK A01 T02460183  RH  068%=      5-min Rain = 0
KMC4 021318Z 12010KT 25/18 A3001 RMK A01 T02470182  RH  067%=      5-min Rain = 0
KMC4 021319Z 12009KT 25/18 A3001 RMK A01 T02470183  RH  067%=      5-min Rain = 0
KMC4 021320Z 12010KT 25/18 A3001 RMK A01 T02480184  RH  068%=      5-min Rain = 0
KMC4 021321Z 12010KT 25/18 A3001 RMK A01 T02470184  RH  068%=      5-min Rain = 0
KMC4 021322Z 11010KT 25/19 A3001 RMK A01 T02470185  RH  068%=      5-min Rain = 0
KMC4 021323Z 13010KT 25/18 A3001 RMK A01 T02460184  RH  068%=      5-min Rain = 0
KMC4 021324Z 13011KT 25/18 A3001 RMK A01 T02460184  RH  068%=      5-min Rain = 0
KMC4 021325Z 13010KT 25/18 A3001 RMK A01 T02460184  RH  069%=      5-min Rain = 0
KMC4 021326Z 12010KT 25/18 A3001 RMK A01 T02450184  RH  069%=      5-min Rain = 0
KMC4 021327Z 12010KT 25/18 A3001 RMK A01 T02450184  RH  069%=      5-min Rain = 0
KMC4 021328Z 12011KT 25/18 A3001 RMK A01 T02450184  RH  069%=      5-min Rain = 0
KMC4 021329Z 12010KT 24/18 A3001 RMK A01 T02440184  RH  069%=      5-min Rain = 0
KMC4 021330Z 12011KT 24/18 A3001 RMK A01 T02440184  RH  069%=      5-min Rain = 0
KMC4 021331Z 12010KT 24/18 A3001 RMK A01 T02440184  RH  069%=      5-min Rain = 0
KMC4 021332Z 12011KT 24/18 A3001 RMK A01 T02440184  RH  069%=      5-min Rain = 0
KMC4 021333Z 12010KT 24/18 A3001 RMK A01 T02440184  RH  069%=      5-min Rain = 0
KMC4 021334Z 12009KT 24/18 A3001 RMK A01 T02440183  RH  069%=      5-min Rain = 0
KMC4 021335Z 11008KT 25/18 A3001 RMK A01 T02450183  RH  069%=      5-min Rain = 0
KMC4 021336Z 12008KT 25/18 A3001 RMK A01 T02460184  RH  068%=      5-min Rain = 0
KMC4 021337Z 11008KT 25/18 A3001 RMK A01 T02460183  RH  068%=      5-min Rain = 0
KMC4 021338Z 12009KT 25/18 A3001 RMK A01 T02460184  RH  068%=      5-min Rain = 0
KMC4 021339Z 12009KT 25/18 A3001 RMK A01 T02470184  RH  068%=      5-min Rain = 0
KMC4 021340Z 12012KT 25/18 A3001 RMK A01 T02470184  RH  068%=      5-min Rain = 0
KMC4 021341Z 12011KT 25/18 A3001 RMK A01 T02470183  RH  067%=      5-min Rain = 0
KMC4 021342Z 12011KT 25/18 A3001 RMK A01 T02470182  RH  067%=      5-min Rain = 0
KMC4 021343Z 12009KT 25/18 A3001 RMK A01 T02470182  RH  067%=      5-min Rain = 0
KMC4 021344Z 12011KT 25/18 A3001 RMK A01 T02470182  RH  067%=      5-min Rain = 0
KMC4 021345Z 12010KT 25/18 A3002 RMK A01 T02480182  RH  067%=      5-min Rain = 0
KMC4 021346Z 12011KT 25/18 A3002 RMK A01 T02480182  RH  067%=      5-min Rain = 0
KMC4 021347Z 12009KT 25/18 A3002 RMK A01 T02490182  RH  067%=      5-min Rain = 0
KMC4 021348Z 12008KT 25/18 A3002 RMK A01 T02490183  RH  067%=      5-min Rain = 0
KMC4 021349Z 12009KT 25/18 A3001 RMK A01 T02490182  RH  066%=      5-min Rain = 0
KMC4 021350Z 11008KT 25/18 A3002 RMK A01 T02490183  RH  066%=      5-min Rain = 0
KMC4 021351Z 11010KT 25/18 A3002 RMK A01 T02500183  RH  066%=      5-min Rain = 0
KMC4 021352Z 12008KT 25/18 A3002 RMK A01 T02510182  RH  066%=      5-min Rain = 0
KMC4 021353Z 11009KT 25/18 A3002 RMK A01 T02520182  RH  065%=      5-min Rain = 0
KMC4 021354Z 12009KT 25/18 A3002 RMK A01 T02510182  RH  066%=      5-min Rain = 0
KMC4 021355Z 13010KT 25/18 A3001 RMK A01 T02510183  RH  066%=      5-min Rain = 0
KMC4 021356Z 12008KT 25/18 A3001 RMK A01 T02510183  RH  066%=      5-min Rain = 0
KMC4 021357Z 12009KT 25/18 A3002 RMK A01 T02510183  RH  066%=      5-min Rain = 0
KMC4 021358Z 14008KT 25/18 A3002 RMK A01 T02510182  RH  066%=      5-min Rain = 0
KMC4 021359Z 14010KT 25/18 A3002 RMK A01 T02520183  RH  066%=      5-min Rain = 0
KMC4 021400Z 12008KT 25/18 A3002 RMK A01 T02530184  RH  065%=      5-min Rain = 0
KMC4 021401Z 11010KT 25/18 A3002 RMK A01 T02530184  RH  065%=      5-min Rain = 0
KMC4 021402Z 12009KT 25/18 A3002 RMK A01 T02540183  RH  065%=      5-min Rain = 0
KMC4 021403Z 13009KT 25/18 A3002 RMK A01 T02540183  RH  064%=      5-min Rain = 0
KMC4 021404Z 15007KT 26/18 A3002 RMK A01 T02550181  RH  064%=      5-min Rain = 0
KMC4 021405Z 13010KT 26/18 A3002 RMK A01 T02550181  RH  063%=      5-min Rain = 0
KMC4 021406Z 14009KT 26/18 A3002 RMK A01 T02560180  RH  063%=      5-min Rain = 0
KMC4 021407Z 13010KT 26/18 A3002 RMK A01 T02560181  RH  063%=      5-min Rain = 0
KMC4 021408Z 12010KT 26/18 A3002 RMK A01 T02560181  RH  063%=      5-min Rain = 0
KMC4 021409Z 12011KT 26/18 A3002 RMK A01 T02560181  RH  063%=      5-min Rain = 0
KMC4 021410Z 12011KT 26/18 A3002 RMK A01 T02560181  RH  063%=      5-min Rain = 0
KMC4 021411Z 12011KT 26/18 A3002 RMK A01 T02550181  RH  063%=      5-min Rain = 0
KMC4 021412Z 12011KT 26/18 A3002 RMK A01 T02560181  RH  063%=      5-min Rain = 0
KMC4 021413Z 13010KT 26/18 A3002 RMK A01 T02560181  RH  063%=      5-min Rain = 0
KMC4 021414Z 13010KT 26/18 A3002 RMK A01 T02560182  RH  064%=      5-min Rain = 0
KMC4 021415Z 13011KT 26/18 A3002 RMK A01 T02570182  RH  063%=      5-min Rain = 0
KMC4 021416Z 13011KT 26/18 A3002 RMK A01 T02570182  RH  063%=      5-min Rain = 0
KMC4 021417Z 13012KT 26/18 A3002 RMK A01 T02560181  RH  063%=      5-min Rain = 0
KMC4 021418Z 13011KT 26/18 A3002 RMK A01 T02550181  RH  064%=      5-min Rain = 0
KMC4 021419Z 12013KT 26/18 A3002 RMK A01 T02550182  RH  064%=      5-min Rain = 0
KMC4 021420Z 13012KT 26/18 A3002 RMK A01 T02550181  RH  064%=      5-min Rain = 0
KMC4 021421Z 14012KT 26/18 A3002 RMK A01 T02550181  RH  064%=      5-min Rain = 0
KMC4 021422Z 15011KT 26/18 A3002 RMK A01 T02550181  RH  063%=      5-min Rain = 0
KMC4 021423Z 13009KT 26/18 A3002 RMK A01 T02560182  RH  064%=      5-min Rain = 0
KMC4 021424Z 13011KT 26/18 A3002 RMK A01 T02590183  RH  063%=      5-min Rain = 0
KMC4 021425Z 15012KT 26/18 A3002 RMK A01 T02620182  RH  061%=      5-min Rain = 0
KMC4 021426Z 14009KT 26/18 A3002 RMK A01 T02620181  RH  061%=      5-min Rain = 0
KMC4 021427Z 13008KT 26/18 A3002 RMK A01 T02610182  RH  062%=      5-min Rain = 0
KMC4 021428Z 13011KT 26/18 A3002 RMK A01 T02610181  RH  061%=      5-min Rain = 0
KMC4 021429Z 14010KT 26/18 A3002 RMK A01 T02610182  RH  062%=      5-min Rain = 0
KMC4 021430Z 13011KT 26/18 A3002 RMK A01 T02610182  RH  062%=      5-min Rain = 0
KMC4 021431Z 13011KT 26/18 A3002 RMK A01 T02610181  RH  061%=      5-min Rain = 0
KMC4 021432Z 14008KT 26/18 A3002 RMK A01 T02610181  RH  061%=      5-min Rain = 0
KMC4 021433Z 14006KT 26/18 A3002 RMK A01 T02620182  RH  061%=      5-min Rain = 0
KMC4 021434Z 13008KT 26/18 A3002 RMK A01 T02640183  RH  061%=      5-min Rain = 0
KMC4 021435Z 11009KT 27/18 A3002 RMK A01 T02650182  RH  060%=      5-min Rain = 0
KMC4 021436Z 11009KT 26/18 A3002 RMK A01 T02640182  RH  060%=      5-min Rain = 0
KMC4 021437Z 10010KT 26/18 A3002 RMK A01 T02630182  RH  061%=      5-min Rain = 0
KMC4 021438Z 14010KT 26/18 A3002 RMK A01 T02620182  RH  061%=      5-min Rain = 0
KMC4 021439Z 14008KT 26/18 A3002 RMK A01 T02620180  RH  061%=      5-min Rain = 0
KMC4 021440Z 14006KT 26/18 A3002 RMK A01 T02630180  RH  060%=      5-min Rain = 0
KMC4 021441Z 14009KT 26/18 A3002 RMK A01 T02630180  RH  060%=      5-min Rain = 0
KMC4 021442Z 14007G12KT 26/18 A3002 RMK A01 T02640180  RH  060%=      5-min Rain = 0
KMC4 021443Z 13011KT 27/18 A3002 RMK A01 T02650180  RH  060%=      5-min Rain = 0
KMC4 021444Z 14009KT 27/18 A3002 RMK A01 T02660179  RH  059%=      5-min Rain = 0
KMC4 021445Z 14009KT 27/18 A3002 RMK A01 T02680180  RH  059%=      5-min Rain = 0
KMC4 021446Z 12008KT 27/18 A3002 RMK A01 T02680181  RH  059%=      5-min Rain = 0
KMC4 021447Z 13009KT 27/18 A3002 RMK A01 T02670181  RH  059%=      5-min Rain = 0
KMC4 021448Z 14012KT 27/18 A3002 RMK A01 T02670180  RH  059%=      5-min Rain = 0
KMC4 021449Z 14011KT 27/18 A3002 RMK A01 T02670179  RH  059%=      5-min Rain = 0
KMC4 021450Z 15007KT 27/18 A3002 RMK A01 T02670179  RH  058%=      5-min Rain = 0
KMC4 021451Z 14007KT 27/18 A3002 RMK A01 T02680181  RH  059%=      5-min Rain = 0
KMC4 021452Z 13010KT 27/18 A3002 RMK A01 T02710181  RH  058%=      5-min Rain = 0
KMC4 021453Z 12009KT 27/18 A3002 RMK A01 T02710180  RH  057%=      5-min Rain = 0
KMC4 021454Z 13008KT 27/18 A3002 RMK A01 T02690180  RH  058%=      5-min Rain = 0
KMC4 021455Z 13010KT 27/18 A3002 RMK A01 T02680181  RH  059%=      5-min Rain = 0
KMC4 021456Z 13009KT 27/18 A3002 RMK A01 T02690182  RH  059%=      5-min Rain = 0
KMC4 021457Z 14008KT 27/18 A3002 RMK A01 T02700181  RH  058%=      5-min Rain = 0
KMC4 021458Z 14009KT 27/18 A3002 RMK A01 T02710182  RH  058%=      5-min Rain = 0
KMC4 021459Z 14011KT 27/18 A3002 RMK A01 T02720181  RH  058%=      5-min Rain = 0
KMC4 021500Z 13013KT 27/18 A3002 RMK A01 T02730182  RH  058%=      5-min Rain = 0
KMC4 021501Z 14009KT 27/18 A3002 RMK A01 T02730182  RH  058%=      5-min Rain = 0
KMC4 021502Z 14008KT 27/18 A3002 RMK A01 T02730182  RH  058%=      5-min Rain = 0
KMC4 021503Z 13009KT 27/18 A3002 RMK A01 T02730182  RH  057%=      5-min Rain = 0
KMC4 021504Z 13012KT 27/18 A3002 RMK A01 T02730182  RH  057%=      5-min Rain = 0
KMC4 021505Z 14012KT 27/18 A3002 RMK A01 T02730182  RH  057%=      5-min Rain = 0
KMC4 021506Z 13010KT 27/18 A3002 RMK A01 T02720182  RH  058%=      5-min Rain = 0
KMC4 021507Z 14009KT 27/18 A3002 RMK A01 T02720182  RH  058%=      5-min Rain = 0
KMC4 021508Z 14011KT 27/18 A3002 RMK A01 T02720182  RH  058%=      5-min Rain = 0
KMC4 021509Z 14011KT 27/18 A3002 RMK A01 T02720182  RH  058%=      5-min Rain = 0
KMC4 021510Z 13010KT 27/18 A3002 RMK A01 T02730182  RH  058%=      5-min Rain = 0
KMC4 021511Z 14008KT 27/18 A3002 RMK A01 T02740182  RH  057%=      5-min Rain = 0
KMC4 021512Z 15011KT 28/18 A3002 RMK A01 T02750183  RH  057%=      5-min Rain = 0
KMC4 021513Z 13013KT 28/18 A3002 RMK A01 T02760183  RH  057%=      5-min Rain = 0
KMC4 021514Z 13012KT 28/18 A3002 RMK A01 T02760182  RH  057%=      5-min Rain = 0
KMC4 021515Z 14011KT 28/18 A3002 RMK A01 T02750183  RH  057%=      5-min Rain = 0
KMC4 021516Z 15012KT 28/18 A3002 RMK A01 T02750183  RH  057%=      5-min Rain = 0
KMC4 021517Z 13013KT 28/18 A3002 RMK A01 T02760183  RH  057%=      5-min Rain = 0
KMC4 021518Z 15010KT 28/18 A3002 RMK A01 T02780183  RH  056%=      5-min Rain = 0
KMC4 021519Z 14010KT 28/18 A3002 RMK A01 T02780182  RH  056%=      5-min Rain = 0
KMC4 021520Z 15011KT 28/18 A3002 RMK A01 T02770182  RH  056%=      5-min Rain = 0
KMC4 021521Z 15012KT 28/18 A3002 RMK A01 T02780182  RH  056%=      5-min Rain = 0
KMC4 021522Z 13010KT 28/18 A3002 RMK A01 T02780182  RH  056%=      5-min Rain = 0
KMC4 021523Z 14011KT 28/18 A3002 RMK A01 T02800183  RH  055%=      5-min Rain = 0
KMC4 021524Z 16011KT 28/18 A3002 RMK A01 T02810183  RH  055%=      5-min Rain = 0
KMC4 021525Z 15010KT 28/18 A3002 RMK A01 T02810183  RH  055%=      5-min Rain = 0
KMC4 021526Z 15008KT 28/18 A3002 RMK A01 T02800183  RH  056%=      5-min Rain = 0
KMC4 021527Z 16008KT 28/18 A3002 RMK A01 T02810183  RH  055%=      5-min Rain = 0
KMC4 021528Z 14011KT 29/19 A3002 RMK A01 T02850185  RH  055%=      5-min Rain = 0
KMC4 021529Z 15012KT 29/18 A3002 RMK A01 T02880184  RH  053%=      5-min Rain = 0
KMC4 021530Z 16011KT 29/18 A3002 RMK A01 T02870183  RH  053%=      5-min Rain = 0
KMC4 021531Z 14011KT 29/18 A3002 RMK A01 T02850183  RH  054%=      5-min Rain = 0
KMC4 021532Z 14008KT 29/18 A3002 RMK A01 T02860184  RH  054%=      5-min Rain = 0
KMC4 021533Z 16009KT 29/18 A3002 RMK A01 T02860183  RH  054%=      5-min Rain = 0
KMC4 021534Z 15008G13KT 29/18 A3002 RMK A01 T02860183  RH  054%=      5-min Rain = 0
KMC4 021535Z 15015KT 29/18 A3002 RMK A01 T02880183  RH  053%=      5-min Rain = 0
KMC4 021536Z 14011KT 29/18 A3002 RMK A01 T02910182  RH  052%=      5-min Rain = 0
KMC4 021537Z 15010KT 29/18 A3002 RMK A01 T02920181  RH  051%=      5-min Rain = 0
KMC4 021538Z 15012KT 29/18 A3002 RMK A01 T02920181  RH  051%=      5-min Rain = 0
KMC4 021539Z 15014KT 29/18 A3002 RMK A01 T02930181  RH  051%=      5-min Rain = 0
KMC4 021540Z 15011G16KT 29/18 A3002 RMK A01 T02930182  RH  051%=      5-min Rain = 0
KMC4 021541Z 14014KT 29/18 A3002 RMK A01 T02930180  RH  051%=      5-min Rain = 0
KMC4 021542Z 14013KT 30/18 A3002 RMK A01 T02950180  RH  050%=      5-min Rain = 0
KMC4 021543Z 15015KT 30/18 A3002 RMK A01 T02970180  RH  049%=      5-min Rain = 0
KMC4 021544Z 15013KT 30/18 A3002 RMK A01 T02980181  RH  049%=      5-min Rain = 0
KMC4 021545Z 14014KT 30/18 A3002 RMK A01 T03000180  RH  049%=      5-min Rain = 0
KMC4 021546Z 14013KT 30/18 A3002 RMK A01 T03000179  RH  048%=      5-min Rain = 0
KMC4 021547Z 14012KT 30/18 A3002 RMK A01 T02970178  RH  049%=      5-min Rain = 0
KMC4 021548Z 15013KT 30/18 A3002 RMK A01 T02970179  RH  049%=      5-min Rain = 0
KMC4 021549Z 15013KT 30/18 A3002 RMK A01 T02990179  RH  049%=      5-min Rain = 0
KMC4 021550Z 16014KT 30/18 A3002 RMK A01 T03020179  RH  048%=      5-min Rain = 0
KMC4 021551Z 16016KT 30/18 A3002 RMK A01 T03020178  RH  047%=      5-min Rain = 0
KMC4 021552Z 16015KT 30/18 A3002 RMK A01 T03010177  RH  047%=      5-min Rain = 0
KMC4 021553Z 16016KT 30/18 A3002 RMK A01 T03000177  RH  048%=      5-min Rain = 0
KMC4 021554Z 15014KT 30/18 A3002 RMK A01 T03000176  RH  047%=      5-min Rain = 0
KMC4 021555Z 16011KT 30/18 A3002 RMK A01 T03010176  RH  047%=      5-min Rain = 0
KMC4 021556Z 17009KT 30/18 A3002 RMK A01 T03020176  RH  047%=      5-min Rain = 0
KMC4 021557Z 15015KT 30/18 A3002 RMK A01 T03020175  RH  046%=      5-min Rain = 0
KMC4 021558Z 14014KT 30/17 A3002 RMK A01 T03010174  RH  046%=      5-min Rain = 0
KMC4 021559Z 13014KT 30/17 A3002 RMK A01 T03030174  RH  046%=      5-min Rain = 0
KMC4 021600Z 13016KT 30/17 A3001 RMK A01 T03040174  RH  046%=      5-min Rain = 0
KMC4 021601Z 14015KT 30/17 A3002 RMK A01 T03040173  RH  046%=      5-min Rain = 0
KMC4 021602Z 14015KT 30/17 A3002 RMK A01 T03030173  RH  045%=      5-min Rain = 0
KMC4 021603Z 13015KT 30/17 A3001 RMK A01 T03040173  RH  045%=      5-min Rain = 0
KMC4 021604Z 14014G19KT 31/17 A3002 RMK A01 T03050172  RH  045%=      5-min Rain = 0
KMC4 021605Z 16015G22KT 31/17 A3001 RMK A01 T03060173  RH  045%=      5-min Rain = 0
KMC4 021606Z 15011KT 31/17 A3002 RMK A01 T03070173  RH  045%=      5-min Rain = 0
KMC4 021607Z 15013KT 31/17 A3002 RMK A01 T03080173  RH  044%=      5-min Rain = 0
KMC4 021608Z 15014G19KT 31/17 A3002 RMK A01 T03080173  RH  044%=      5-min Rain = 0
KMC4 021609Z 16011KT 31/17 A3002 RMK A01 T03100174  RH  044%=      5-min Rain = 0
KMC4 021610Z 16013KT 31/17 A3001 RMK A01 T03100173  RH  044%=      5-min Rain = 0
KMC4 021611Z 16015KT 31/17 A3001 RMK A01 T03100172  RH  044%=      5-min Rain = 0
KMC4 021612Z 15014KT 31/17 A3001 RMK A01 T03100171  RH  043%=      5-min Rain = 0
KMC4 021613Z 15010KT 31/17 A3001 RMK A01 T03080170  RH  044%=      5-min Rain = 0
KMC4 021614Z 14012KT 31/17 A3001 RMK A01 T03120172  RH  043%=      5-min Rain = 0
KMC4 021615Z 13013KT 32/17 A3001 RMK A01 T03150171  RH  042%=      5-min Rain = 0
KMC4 021616Z 14013KT 32/17 A3001 RMK A01 T03150171  RH  042%=      5-min Rain = 0
KMC4 021617Z 13010KT 32/17 A3001 RMK A01 T03150170  RH  042%=      5-min Rain = 0
KMC4 021618Z 15010KT 32/17 A3001 RMK A01 T03160170  RH  042%=      5-min Rain = 0
KMC4 021619Z 12008KT 31/17 A3001 RMK A01 T03140168  RH  042%=      5-min Rain = 0
KMC4 021620Z 15011KT 31/17 A3001 RMK A01 T03130169  RH  042%=      5-min Rain = 0
KMC4 021621Z 15013KT 32/17 A3001 RMK A01 T03150171  RH  042%=      5-min Rain = 0
KMC4 021622Z 15015KT 32/17 A3001 RMK A01 T03150171  RH  042%=      5-min Rain = 0
KMC4 021623Z 15013KT 32/17 A3001 RMK A01 T03160172  RH  042%=      5-min Rain = 0
KMC4 021624Z 14013KT 32/17 A3001 RMK A01 T03170172  RH  042%=      5-min Rain = 0
KMC4 021625Z 15011KT 32/17 A3001 RMK A01 T03170171  RH  042%=      5-min Rain = 0
KMC4 021626Z 15011KT 32/17 A3001 RMK A01 T03190173  RH  042%=      5-min Rain = 0
KMC4 021627Z 17011KT 32/17 A3001 RMK A01 T03210173  RH  041%=      5-min Rain = 0
KMC4 021628Z 16010KT 32/17 A3001 RMK A01 T03180171  RH  041%=      5-min Rain = 0
KMC4 021629Z 16012KT 32/17 A3001 RMK A01 T03170169  RH  041%=      5-min Rain = 0
KMC4 021630Z 15011KT 32/17 A3001 RMK A01 T03200169  RH  040%=      5-min Rain = 0
KMC4 021631Z 16011KT 32/17 A3001 RMK A01 T03210167  RH  040%=      5-min Rain = 0
KMC4 021632Z 16011G16KT 32/17 A3001 RMK A01 T03200168  RH  040%=      5-min Rain = 0
KMC4 021633Z 16017KT 32/17 A3001 RMK A01 T03210171  RH  041%=      5-min Rain = 0
KMC4 021634Z 16013KT 32/17 A3001 RMK A01 T03210171  RH  041%=      5-min Rain = 0
KMC4 021635Z 15014G19KT 32/17 A3001 RMK A01 T03190171  RH  041%=      5-min Rain = 0
KMC4 021636Z 15015KT 32/17 A3001 RMK A01 T03200170  RH  041%=      5-min Rain = 0
KMC4 021637Z 17013G18KT 32/17 A3001 RMK A01 T03190170  RH  041%=      5-min Rain = 0
KMC4 021638Z 17012KT 32/17 A3001 RMK A01 T03190171  RH  041%=      5-min Rain = 0
KMC4 021639Z 15012G17KT 32/17 A3001 RMK A01 T03200170  RH  041%=      5-min Rain = 0
KMC4 021640Z 14014KT 32/17 A3001 RMK A01 T03180171  RH  041%=      5-min Rain = 0
KMC4 021641Z 16011KT 32/17 A3001 RMK A01 T03190169  RH  041%=      5-min Rain = 0
KMC4 021642Z 16014KT 32/17 A3001 RMK A01 T03190170  RH  041%=      5-min Rain = 0
KMC4 021643Z 16014KT 32/17 A3001 RMK A01 T03180170  RH  041%=      5-min Rain = 0
KMC4 021644Z 16016KT 32/17 A3001 RMK A01 T03170170  RH  041%=      5-min Rain = 0
KMC4 021645Z 13013KT 32/17 A3001 RMK A01 T03160170  RH  042%=      5-min Rain = 0
KMC4 021646Z 13012KT 32/17 A3001 RMK A01 T03170171  RH  042%=      5-min Rain = 0
KMC4 021647Z 14013KT 32/17 A3001 RMK A01 T03190172  RH  041%=      5-min Rain = 0
KMC4 021648Z 15014G19KT 33/18 A3001 RMK A01 T03250175  RH  041%=      5-min Rain = 0
KMC4 021649Z 15013G18KT 33/17 A3001 RMK A01 T03260173  RH  040%=      5-min Rain = 0
KMC4 021650Z 16009KT 32/17 A3001 RMK A01 T03240173  RH  041%=      5-min Rain = 0
KMC4 021651Z 16013KT 33/18 A3001 RMK A01 T03250175  RH  041%=      5-min Rain = 0
KMC4 021652Z 18015KT 33/18 A3001 RMK A01 T03290176  RH  040%=      5-min Rain = 0
KMC4 021653Z 18012KT 32/18 A3001 RMK A01 T03240175  RH  041%=      5-min Rain = 0
KMC4 021654Z 18010KT 32/18 A3001 RMK A01 T03220176  RH  042%=      5-min Rain = 0
KMC4 021655Z 17010KT 32/18 A3001 RMK A01 T03220177  RH  042%=      5-min Rain = 0
KMC4 021656Z 18012KT 33/18 A3001 RMK A01 T03260178  RH  041%=      5-min Rain = 0
KMC4 021657Z 19011KT 33/18 A3001 RMK A01 T03280178  RH  041%=      5-min Rain = 0
KMC4 021658Z 19009KT 33/18 A3001 RMK A01 T03290177  RH  041%=      5-min Rain = 0
KMC4 021659Z 16009KT 33/18 A3001 RMK A01 T03270177  RH  041%=      5-min Rain = 0
KMC4 021700Z 14013KT 33/18 A3001 RMK A01 T03310178  RH  040%=      5-min Rain = 0
KMC4 021701Z 16013KT 33/18 A3001 RMK A01 T03330178  RH  040%=      5-min Rain = 0
KMC4 021702Z 18012KT 33/18 A3001 RMK A01 T03330178  RH  040%=      5-min Rain = 0
KMC4 021703Z 20010KT 33/18 A3001 RMK A01 T03290177  RH  041%=      5-min Rain = 0
KMC4 021704Z 18010KT 33/18 A3001 RMK A01 T03270179  RH  041%=      5-min Rain = 0
KMC4 021705Z 15014KT 33/18 A3001 RMK A01 T03310180  RH  041%=      5-min Rain = 0
KMC4 021706Z 15011KT 33/18 A3001 RMK A01 T03320178  RH  040%=      5-min Rain = 0
KMC4 021707Z 15013KT 33/18 A3001 RMK A01 T03300178  RH  041%=      5-min Rain = 0
KMC4 021708Z 14016KT 33/18 A3001 RMK A01 T03310179  RH  041%=      5-min Rain = 0
KMC4 021709Z 13012KT 33/18 A3001 RMK A01 T03300179  RH  041%=      5-min Rain = 0
KMC4 021710Z 15013KT 33/18 A3001 RMK A01 T03290178  RH  041%=      5-min Rain = 0
KMC4 021711Z 16012KT 33/18 A3001 RMK A01 T03280179  RH  041%=      5-min Rain = 0
KMC4 021712Z 16012KT 33/18 A3001 RMK A01 T03270179  RH  041%=      5-min Rain = 0
KMC4 021713Z 15015KT 33/18 A3001 RMK A01 T03270179  RH  041%=      5-min Rain = 0
KMC4 021714Z 15013G18KT 33/18 A3001 RMK A01 T03270178  RH  041%=      5-min Rain = 0
KMC4 021715Z 16008KT 33/18 A3001 RMK A01 T03300181  RH  041%=      5-min Rain = 0
KMC4 021716Z 16011KT 33/18 A30 RMK A01 T03340180  RH  040%=      5-min Rain = 0
KMC4 021717Z 16016KT 33/18 A30 RMK A01 T03340180  RH  040%=      5-min Rain = 0
KMC4 021718Z 13013KT 33/18 A30 RMK A01 T03300179  RH  041%=      5-min Rain = 0
KMC4 021719Z 13015KT 33/18 A30 RMK A01 T03290179  RH  041%=      5-min Rain = 0
KMC4 021720Z 15014G21KT 33/18 A30 RMK A01 T03300179  RH  041%=      5-min Rain = 0
KMC4 021721Z 16012KT 33/18 A30 RMK A01 T03330181  RH  041%=      5-min Rain = 0
KMC4 021722Z 16011KT 34/18 A3001 RMK A01 T03360181  RH  040%=      5-min Rain = 0
KMC4 021723Z 18011KT 34/18 A30 RMK A01 T03350180  RH  040%=      5-min Rain = 0
KMC4 021724Z 19009KT 33/18 A30 RMK A01 T03310179  RH  040%=      5-min Rain = 0
KMC4 021725Z 18010KT 33/18 A30 RMK A01 T03280178  RH  041%=      5-min Rain = 0
KMC4 021726Z 15014KT 33/18 A30 RMK A01 T03260180  RH  042%=      5-min Rain = 0
KMC4 021727Z 14011KT 33/18 A30 RMK A01 T03290179  RH  041%=      5-min Rain = 0
KMC4 021728Z 15012KT 33/18 A30 RMK A01 T03290180  RH  041%=      5-min Rain = 0
KMC4 021729Z 14012KT 33/18 A30 RMK A01 T03300179  RH  041%=      5-min Rain = 0
KMC4 021730Z 15012KT 33/18 A30 RMK A01 T03300179  RH  041%=      5-min Rain = 0
KMC4 021731Z 14011KT 33/18 A30 RMK A01 T03290179  RH  041%=      5-min Rain = 0
KMC4 021732Z 14013KT 33/18 A30 RMK A01 T03290179  RH  041%=      5-min Rain = 0
KMC4 021733Z 15014KT 33/18 A30 RMK A01 T03300180  RH  041%=      5-min Rain = 0
KMC4 021734Z 17012KT 34/18 A30 RMK A01 T03350180  RH  040%=      5-min Rain = 0
KMC4 021735Z 16014KT 33/18 A30 RMK A01 T03340180  RH  040%=      5-min Rain = 0
KMC4 021736Z 15009KT 33/18 A30 RMK A01 T03330179  RH  040%=      5-min Rain = 0
KMC4 021737Z 16011KT 33/18 A30 RMK A01 T03340179  RH  040%=      5-min Rain = 0
KMC4 021738Z 18013KT 33/18 A30 RMK A01 T03340179  RH  040%=      5-min Rain = 0
KMC4 021739Z 19015KT 33/18 A30 RMK A01 T03340179  RH  040%=      5-min Rain = 0
KMC4 021740Z 19015KT 34/18 A30 RMK A01 T03350179  RH  040%=      5-min Rain = 0
KMC4 021741Z 19010KT 33/18 A30 RMK A01 T03340178  RH  040%=      5-min Rain = 0
KMC4 021742Z 18011KT 33/18 A30 RMK A01 T03330179  RH  040%=      5-min Rain = 0
KMC4 021743Z 19009KT 33/18 A30 RMK A01 T03340178  RH  040%=      5-min Rain = 0
KMC4 021744Z 18012KT 33/18 A30 RMK A01 T03330179  RH  040%=      5-min Rain = 0
KMC4 021745Z 18012KT 33/18 A30 RMK A01 T03340179  RH  040%=      5-min Rain = 0
KMC4 021746Z 18016KT 33/18 A30 RMK A01 T03340178  RH  039%=      5-min Rain = 0
KMC4 021747Z 19014G19KT 33/18 A30 RMK A01 T03310177  RH  040%=      5-min Rain = 0
KMC4 021748Z 19013KT 33/18 A30 RMK A01 T03290177  RH  041%=      5-min Rain = 0
KMC4 021749Z 19013KT 33/18 A30 RMK A01 T03290177  RH  041%=      5-min Rain = 0
KMC4 021750Z 19008KT 33/18 A30 RMK A01 T03280177  RH  041%=      5-min Rain = 0
KMC4 021751Z 17011KT 33/18 A30 RMK A01 T03310179  RH  040%=      5-min Rain = 0
KMC4 021752Z 17011KT 33/18 A30 RMK A01 T03340178  RH  040%=      5-min Rain = 0
KMC4 021753Z 19008KT 33/18 A30 RMK A01 T03340178  RH  040%=      5-min Rain = 0
KMC4 021754Z 21007KT 33/18 A30 RMK A01 T03330178  RH  040%=      5-min Rain = 0
KMC4 021755Z 17007KT 33/18 A30 RMK A01 T03340178  RH  040%=      5-min Rain = 0
KMC4 021756Z 18010KT 34/18 A30 RMK A01 T03350179  RH  040%=      5-min Rain = 0
KMC4 021757Z 19009KT 34/18 A30 RMK A01 T03380178  RH  039%=      5-min Rain = 0
KMC4 021758Z 18007KT 33/18 A2999 RMK A01 T03340177  RH  039%=      5-min Rain = 0
KMC4 021759Z 18007KT 33/18 A2999 RMK A01 T03330178  RH  040%=      5-min Rain = 0
KMC4 021800Z 17006KT 33/18 A2999 RMK A01 T03340178  RH  040%=      5-min Rain = 0
KMC4 021801Z 17011G17KT 34/18 A2999 RMK A01 T03350178  RH  039%=      5-min Rain = 0
KMC4 021802Z 20011KT 34/18 A2999 RMK A01 T03380179  RH  039%=      5-min Rain = 0
KMC4 021803Z 21010KT 34/18 A2999 RMK A01 T03380178  RH  039%=      5-min Rain = 0
KMC4 021804Z 18011KT 34/18 A2999 RMK A01 T03370178  RH  039%=      5-min Rain = 0
KMC4 021805Z 17011KT 34/18 A2999 RMK A01 T03360178  RH  039%=      5-min Rain = 0
KMC4 021806Z 17011KT 34/18 A2999 RMK A01 T03350177  RH  039%=      5-min Rain = 0
KMC4 021807Z 20012KT 34/18 A2999 RMK A01 T03350178  RH  039%=      5-min Rain = 0
KMC4 021808Z 20013KT 34/18 A2999 RMK A01 T03380178  RH  039%=      5-min Rain = 0
KMC4 021809Z 19012KT 34/18 A2999 RMK A01 T03370177  RH  038%=      5-min Rain = 0
KMC4 021810Z 21011KT 33/18 A2999 RMK A01 T03340177  RH  039%=      5-min Rain = 0
KMC4 021811Z 18006G14KT 33/18 A2999 RMK A01 T03340177  RH  039%=      5-min Rain = 0
KMC4 021812Z 18008KT 33/18 A2999 RMK A01 T03340178  RH  039%=      5-min Rain = 0
KMC4 021813Z 17008KT 34/18 A2999 RMK A01 T03350178  RH  039%=      5-min Rain = 0
KMC4 021814Z 16006KT 34/18 A2999 RMK A01 T03350177  RH  039%=      5-min Rain = 0
KMC4 021815Z 17011G17KT 34/18 A2999 RMK A01 T03370179  RH  039%=      5-min Rain = 0
KMC4 021816Z 17012KT 34/18 A2999 RMK A01 T03400179  RH  038%=      5-min Rain = 0
KMC4 021817Z 15011KT 34/18 A2999 RMK A01 T03400179  RH  039%=      5-min Rain = 0
KMC4 021818Z 14011KT 34/18 A2999 RMK A01 T03410179  RH  038%=      5-min Rain = 0
KMC4 021819Z 14006KT 34/18 A2999 RMK A01 T03410178  RH  038%=      5-min Rain = 0
KMC4 021820Z 15008KT 34/18 A2999 RMK A01 T03410178  RH  038%=      5-min Rain = 0
KMC4 021821Z 19010KT 34/18 A2998 RMK A01 T03410178  RH  038%=      5-min Rain = 0
KMC4 021822Z 18010KT 34/18 A2999 RMK A01 T03420178  RH  038%=      5-min Rain = 0
KMC4 021823Z 18007KT 34/18 A2999 RMK A01 T03440179  RH  038%=      5-min Rain = 0
KMC4 021824Z 15009KT 35/18 A2999 RMK A01 T03450179  RH  037%=      5-min Rain = 0
KMC4 021825Z 15012KT 35/18 A2999 RMK A01 T03460178  RH  037%=      5-min Rain = 0
KMC4 021826Z 18012G17KT 35/18 A2999 RMK A01 T03460177  RH  037%=      5-min Rain = 0
KMC4 021827Z 19008KT 34/18 A2999 RMK A01 T03410177  RH  038%=      5-min Rain = 0
KMC4 021828Z 20008KT 34/18 A2998 RMK A01 T03390177  RH  038%=      5-min Rain = 0
KMC4 021829Z 20008KT 34/18 A2998 RMK A01 T03390177  RH  038%=      5-min Rain = 0
KMC4 021830Z 17010G17KT 34/18 A2998 RMK A01 T03400177  RH  038%=      5-min Rain = 0
KMC4 021831Z 17012KT 34/18 A2998 RMK A01 T03410179  RH  038%=      5-min Rain = 0
KMC4 021832Z 15013KT 35/18 A2998 RMK A01 T03450178  RH  037%=      5-min Rain = 0
KMC4 021833Z 15009KT 34/18 A2998 RMK A01 T03430177  RH  037%=      5-min Rain = 0
KMC4 021834Z 16010G16KT 34/18 A2998 RMK A01 T03410177  RH  038%=      5-min Rain = 0
KMC4 021835Z 17008G15KT 34/18 A2998 RMK A01 T03400177  RH  038%=      5-min Rain = 0
KMC4 021836Z 17014KT 34/18 A2998 RMK A01 T03410178  RH  038%=      5-min Rain = 0
KMC4 021837Z 17009KT 34/18 A2998 RMK A01 T03410177  RH  038%=      5-min Rain = 0
KMC4 021838Z 13008KT 34/18 A2998 RMK A01 T03410177  RH  038%=      5-min Rain = 0
KMC4 021839Z 13007KT 34/18 A2998 RMK A01 T03400176  RH  038%=      5-min Rain = 0
KMC4 021840Z 16009KT 34/18 A2998 RMK A01 T03400176  RH  038%=      5-min Rain = 0
KMC4 021841Z 17006KT 34/18 A2998 RMK A01 T03400176  RH  038%=      5-min Rain = 0
KMC4 021842Z 13008KT 34/18 A2998 RMK A01 T03400176  RH  038%=      5-min Rain = 0
KMC4 021843Z 16003KT 34/18 A2998 RMK A01 T03390176  RH  038%=      5-min Rain = 0
KMC4 021844Z 13002KT 34/18 A2998 RMK A01 T03390176  RH  038%=      5-min Rain = 0
KMC4 021845Z 14007KT 34/18 A2997 RMK A01 T03410178  RH  038%=      5-min Rain = 0
KMC4 021846Z 14011KT 34/18 A2997 RMK A01 T03440180  RH  038%=      5-min Rain = 0
KMC4 021847Z 14012KT 35/18 A2997 RMK A01 T03480180  RH  037%=      5-min Rain = 0
KMC4 021848Z 16009KT 35/18 A2997 RMK A01 T03500180  RH  037%=      5-min Rain = 0
KMC4 021849Z 12010KT 35/18 A2997 RMK A01 T03460178  RH  037%=      5-min Rain = 0
KMC4 021850Z 14011KT 34/18 A2997 RMK A01 T03430180  RH  038%=      5-min Rain = 0
KMC4 021851Z 16009KT 35/18 A2997 RMK A01 T03470180  RH  037%=      5-min Rain = 0
KMC4 021852Z 17007KT 35/18 A2997 RMK A01 T03480181  RH  037%=      5-min Rain = 0
KMC4 021853Z 14010KT 35/18 A2997 RMK A01 T03510181  RH  037%=      5-min Rain = 0
KMC4 021854Z 15011KT 35/18 A2997 RMK A01 T03530181  RH  036%=      5-min Rain = 0
KMC4 021855Z 18012KT 35/18 A2997 RMK A01 T03530182  RH  036%=      5-min Rain = 0
KMC4 021856Z 19009KT 35/18 A2997 RMK A01 T03490180  RH  037%=      5-min Rain = 0
KMC4 021857Z 20009KT 35/18 A2997 RMK A01 T03450180  RH  038%=      5-min Rain = 0
KMC4 021858Z 17011KT 35/18 A2997 RMK A01 T03450181  RH  038%=      5-min Rain = 0
KMC4 021859Z 16010KT 34/18 A2997 RMK A01 T03440181  RH  038%=      5-min Rain = 0
KMC4 021900Z 16011KT 35/18 A2997 RMK A01 T03470182  RH  038%=      5-min Rain = 0
KMC4 021901Z 20009KT 35/18 A2997 RMK A01 T03490182  RH  037%=      5-min Rain = 0
KMC4 021902Z 20006KT 35/18 A2997 RMK A01 T03450181  RH  038%=      5-min Rain = 0
KMC4 021903Z 14009KT 34/18 A2997 RMK A01 T03440182  RH  038%=      5-min Rain = 0
KMC4 021904Z 13009KT 34/18 A2997 RMK A01 T03440181  RH  038%=      5-min Rain = 0
KMC4 021905Z 12012KT 34/18 A2997 RMK A01 T03430181  RH  038%=      5-min Rain = 0
KMC4 021906Z 13012KT 34/18 A2997 RMK A01 T03440180  RH  038%=      5-min Rain = 0
KMC4 021907Z 15014KT 35/18 A2997 RMK A01 T03450182  RH  038%=      5-min Rain = 0
KMC4 021908Z 16012KT 35/18 A2997 RMK A01 T03470182  RH  038%=      5-min Rain = 0
KMC4 021909Z 14008KT 35/18 A2997 RMK A01 T03450182  RH  038%=      5-min Rain = 0
KMC4 021910Z 15013KT 35/18 A2997 RMK A01 T03450181  RH  038%=      5-min Rain = 0
KMC4 021911Z 15011G16KT 35/18 A2997 RMK A01 T03450181  RH  038%=      5-min Rain = 0
KMC4 021912Z 15014KT 35/18 A2997 RMK A01 T03450181  RH  038%=      5-min Rain = 0
KMC4 021913Z 14011KT 35/18 A2997 RMK A01 T03470181  RH  038%=      5-min Rain = 0
KMC4 021914Z 12009KT 35/18 A2997 RMK A01 T03490181  RH  037%=      5-min Rain = 0
KMC4 021915Z 10006G11KT 35/18 A2996 RMK A01 T03470181  RH  037%=      5-min Rain = 0
KMC4 021916Z 15008G15KT 35/18 A2996 RMK A01 T03450181  RH  038%=      5-min Rain = 0
KMC4 021917Z 17014KT 35/18 A2996 RMK A01 T03470181  RH  038%=      5-min Rain = 0
KMC4 021918Z 15012KT 35/18 A2996 RMK A01 T03480182  RH  038%=      5-min Rain = 0
KMC4 021919Z 17012KT 35/18 A2996 RMK A01 T03500182  RH  037%=      5-min Rain = 0
KMC4 021920Z 18012KT 35/18 A2996 RMK A01 T03500180  RH  037%=      5-min Rain = 0
KMC4 021921Z 19007KT 35/18 A2996 RMK A01 T03450179  RH  037%=      5-min Rain = 0
KMC4 021922Z 20007G13KT 34/18 A2996 RMK A01 T03420179  RH  038%=      5-min Rain = 0
KMC4 021923Z 20003KT 34/18 A2996 RMK A01 T03420179  RH  038%=      5-min Rain = 0
KMC4 021924Z 16011KT 35/18 A2996 RMK A01 T03460181  RH  038%=      5-min Rain = 0
KMC4 021925Z 19008KT 35/18 A2996 RMK A01 T03450182  RH  038%=      5-min Rain = 0
KMC4 021926Z 23004KT 35/18 A2996 RMK A01 T03450181  RH  038%=      5-min Rain = 0
KMC4 021927Z 16005KT 34/18 A2996 RMK A01 T03420181  RH  039%=      5-min Rain = 0
KMC4 021928Z 16011KT 35/18 A2996 RMK A01 T03450182  RH  038%=      5-min Rain = 0
KMC4 021929Z 18006KT 35/18 A2996 RMK A01 T03470179  RH  037%=      5-min Rain = 0
KMC4 021930Z 18003KT 35/18 A2996 RMK A01 T03460180  RH  038%=      5-min Rain = 0
KMC4 021931Z 16002KT 35/18 A2996 RMK A01 T03470182  RH  038%=      5-min Rain = 0
KMC4 021932Z 14007KT 35/18 A2996 RMK A01 T03490183  RH  038%=      5-min Rain = 0
KMC4 021933Z 14015KT 36/19 A2996 RMK A01 T03550186  RH  037%=      5-min Rain = 0
KMC4 021934Z 14011KT 36/19 A2996 RMK A01 T03590185  RH  036%=      5-min Rain = 0
KMC4 021935Z 16011KT 36/18 A2996 RMK A01 T03610184  RH  035%=      5-min Rain = 0
KMC4 021936Z 14014KT 36/18 A2996 RMK A01 T03590184  RH  036%=      5-min Rain = 0
KMC4 021937Z 13012KT 36/18 A2996 RMK A01 T03560183  RH  036%=      5-min Rain = 0
KMC4 021938Z 13008KT 35/18 A2996 RMK A01 T03540182  RH  036%=      5-min Rain = 0
KMC4 021939Z 13006KT 35/18 A2996 RMK A01 T03510181  RH  037%=      5-min Rain = 0
KMC4 021940Z 15007G13KT 35/18 A2996 RMK A01 T03490181  RH  037%=      5-min Rain = 0
KMC4 021941Z 15012KT 35/18 A2996 RMK A01 T03510181  RH  037%=      5-min Rain = 0
KMC4 021942Z 15011KT 35/18 A2996 RMK A01 T03510179  RH  036%=      5-min Rain = 0
KMC4 021943Z 16007KT 35/18 A2996 RMK A01 T03500178  RH  036%=      5-min Rain = 0
KMC4 021944Z 14006KT 35/18 A2996 RMK A01 T03470177  RH  037%=      5-min Rain = 0
KMC4 021945Z 14011KT 35/18 A2996 RMK A01 T03470179  RH  037%=      5-min Rain = 0
KMC4 021946Z 18009KT 35/18 A2996 RMK A01 T03500181  RH  037%=      5-min Rain = 0
KMC4 021947Z 15013KT 35/18 A2996 RMK A01 T03500183  RH  037%=      5-min Rain = 0
KMC4 021948Z 14010KT 35/18 A2996 RMK A01 T03520182  RH  037%=      5-min Rain = 0
KMC4 021949Z 14012KT 35/18 A2995 RMK A01 T03500180  RH  037%=      5-min Rain = 0
KMC4 021950Z 15012KT 35/18 A2995 RMK A01 T03510181  RH  037%=      5-min Rain = 0
KMC4 021951Z 18010KT 35/18 A2995 RMK A01 T03510181  RH  037%=      5-min Rain = 0
KMC4 021952Z 17010KT 35/18 A2995 RMK A01 T03510181  RH  037%=      5-min Rain = 0
KMC4 021953Z 18007KT 35/18 A2995 RMK A01 T03490180  RH  037%=      5-min Rain = 0
KMC4 021954Z 17007G13KT 35/18 A2995 RMK A01 T03470182  RH  038%=      5-min Rain = 0
KMC4 021955Z 19011KT 35/19 A2995 RMK A01 T03510185  RH  038%=      5-min Rain = 0
KMC4 021956Z 19011KT 35/18 A2995 RMK A01 T03540182  RH  036%=      5-min Rain = 0
KMC4 021957Z 16008KT 35/18 A2995 RMK A01 T03520182  RH  037%=      5-min Rain = 0
KMC4 021958Z 15006KT 35/18 A2995 RMK A01 T03510183  RH  037%=      5-min Rain = 0
KMC4 021959Z 16009KT 35/18 A2995 RMK A01 T03510184  RH  037%=      5-min Rain = 0
KMC4 022000Z 16013KT 36/19 A2995 RMK A01 T03560186  RH  037%=      5-min Rain = 0
KMC4 022001Z 12014G22KT 36/19 A2995 RMK A01 T03600185  RH  036%=      5-min Rain = 0
KMC4 022002Z 14015KT 36/18 A2995 RMK A01 T03580183  RH  036%=      5-min Rain = 0
KMC4 022003Z 14011G16KT 36/18 A2995 RMK A01 T03560183  RH  036%=      5-min Rain = 0
KMC4 022004Z 14008KT 35/18 A2995 RMK A01 T03530182  RH  037%=      5-min Rain = 0
KMC4 022005Z 13012KT 35/18 A2995 RMK A01 T03540183  RH  037%=      5-min Rain = 0
KMC4 022006Z 16013KT 36/18 A2995 RMK A01 T03580184  RH  036%=      5-min Rain = 0
KMC4 022007Z 14008KT 36/18 A2995 RMK A01 T03550182  RH  036%=      5-min Rain = 0
KMC4 022008Z 12005KT 35/18 A2995 RMK A01 T03520183  RH  037%=      5-min Rain = 0
KMC4 022009Z 11006G11KT 35/18 A2995 RMK A01 T03520183  RH  037%=      5-min Rain = 0
KMC4 022010Z 13007G14KT 35/18 A2995 RMK A01 T03540184  RH  037%=      5-min Rain = 0
KMC4 022011Z 13012KT 36/19 A2995 RMK A01 T03550185  RH  037%=      5-min Rain = 0
KMC4 022012Z 12011KT 36/19 A2995 RMK A01 T03570185  RH  036%=      5-min Rain = 0
KMC4 022013Z 12012KT 36/19 A2995 RMK A01 T03570185  RH  036%=      5-min Rain = 0
KMC4 022014Z 10006KT 35/18 A2995 RMK A01 T03540183  RH  037%=      5-min Rain = 0
KMC4 022015Z 10009KT 35/18 A2995 RMK A01 T03500183  RH  037%=      5-min Rain = 0
KMC4 022016Z 14009KT 35/18 A2995 RMK A01 T03520182  RH  037%=      5-min Rain = 0
KMC4 022017Z 14010KT 36/18 A2995 RMK A01 T03550180  RH  036%=      5-min Rain = 0
KMC4 022018Z 13009KT 36/18 A2995 RMK A01 T03550182  RH  036%=      5-min Rain = 0
KMC4 022019Z 15010KT 36/18 A2995 RMK A01 T03570184  RH  036%=      5-min Rain = 0
KMC4 022020Z 15008KT 36/18 A2995 RMK A01 T03610184  RH  035%=      5-min Rain = 0
KMC4 022021Z 13008KT 36/18 A2995 RMK A01 T03600181  RH  035%=      5-min Rain = 0
KMC4 022022Z 11007KT 36/18 A2995 RMK A01 T03590181  RH  035%=      5-min Rain = 0
KMC4 022023Z 13007KT 36/18 A2995 RMK A01 T03600181  RH  035%=      5-min Rain = 0
KMC4 022024Z 14009KT 36/18 A2995 RMK A01 T03610180  RH  034%=      5-min Rain = 0
KMC4 022025Z 14008KT 36/18 A2995 RMK A01 T03640179  RH  034%=      5-min Rain = 0
KMC4 022026Z 13008KT 36/18 A2995 RMK A01 T03610179  RH  034%=      5-min Rain = 0
KMC4 022027Z 12009KT 36/18 A2995 RMK A01 T03590180  RH  035%=      5-min Rain = 0
KMC4 022028Z 13008G14KT 36/18 A2995 RMK A01 T03570178  RH  035%=      5-min Rain = 0
KMC4 022029Z 11011KT 36/18 A2995 RMK A01 T03580176  RH  034%=      5-min Rain = 0
KMC4 022030Z 09007KT 36/18 A2995 RMK A01 T03570175  RH  034%=      5-min Rain = 0
KMC4 022031Z 09004KT 36/17 A2995 RMK A01 T03560174  RH  034%=      5-min Rain = 0
KMC4 022032Z 13008KT 36/18 A2995 RMK A01 T03550176  RH  035%=      5-min Rain = 0
KMC4 022033Z 16010KT 36/18 A2995 RMK A01 T03570182  RH  036%=      5-min Rain = 0
KMC4 022034Z 15010KT 36/18 A2995 RMK A01 T03600182  RH  035%=      5-min Rain = 0
KMC4 022035Z 15007KT 36/18 A2995 RMK A01 T03620179  RH  034%=      5-min Rain = 0
KMC4 022036Z 16007KT 36/18 A2995 RMK A01 T03600179  RH  034%=      5-min Rain = 0
KMC4 022037Z 14006KT 36/18 A2995 RMK A01 T03590180  RH  035%=      5-min Rain = 0
KMC4 022038Z 16007KT 36/18 A2995 RMK A01 T03590179  RH  035%=      5-min Rain = 0
KMC4 022039Z 12010KT 36/18 A2995 RMK A01 T03590179  RH  034%=      5-min Rain = 0
KMC4 022040Z 13007KT 36/18 A2995 RMK A01 T03610177  RH  034%=      5-min Rain = 0
KMC4 022041Z 11009KT 36/17 A2994 RMK A01 T03610174  RH  033%=      5-min Rain = 0
KMC4 022042Z 13010KT 36/18 A2994 RMK A01 T03600178  RH  034%=      5-min Rain = 0
KMC4 022043Z 15011KT 36/18 A2994 RMK A01 T03620182  RH  035%=      5-min Rain = 0
KMC4 022044Z 15011KT 36/18 A2994 RMK A01 T03640181  RH  034%=      5-min Rain = 0
KMC4 022045Z 18009KT 36/18 A2994 RMK A01 T03620179  RH  034%=      5-min Rain = 0
KMC4 022046Z 15010KT 36/18 A2994 RMK A01 T03570179  RH  035%=      5-min Rain = 0
KMC4 022047Z 16012KT 36/18 A2994 RMK A01 T03610180  RH  034%=      5-min Rain = 0
KMC4 022048Z 17012KT 37/18 A2994 RMK A01 T03660177  RH  033%=      5-min Rain = 0
KMC4 022049Z 17008KT 37/18 A2994 RMK A01 T03660177  RH  033%=      5-min Rain = 0
KMC4 022050Z 17005KT 36/18 A2994 RMK A01 T03600181  RH  035%=      5-min Rain = 0
KMC4 022051Z 18009KT 36/18 A2994 RMK A01 T03600182  RH  035%=      5-min Rain = 0
KMC4 022052Z 14012KT 36/18 A2994 RMK A01 T03640182  RH  034%=      5-min Rain = 0
KMC4 022053Z 14014KT 37/18 A2994 RMK A01 T03650183  RH  034%=      5-min Rain = 0
KMC4 022054Z 14012KT 36/18 A2994 RMK A01 T03610182  RH  035%=      5-min Rain = 0
KMC4 022055Z 13011KT 36/18 A2994 RMK A01 T03550182  RH  036%=      5-min Rain = 0
KMC4 022056Z 13009KT 35/18 A2994 RMK A01 T03510180  RH  036%=      5-min Rain = 0
KMC4 022057Z 13008KT 35/18 A2994 RMK A01 T03480180  RH  037%=      5-min Rain = 0
KMC4 022058Z 12006KT 35/18 A2994 RMK A01 T03470180  RH  037%=      5-min Rain = 0
KMC4 022059Z 12003KT 35/18 A2994 RMK A01 T03460180  RH  038%=      5-min Rain = 0
KMC4 022100Z 13005KT 35/18 A2994 RMK A01 T03470182  RH  038%=      5-min Rain = 0
KMC4 022101Z 12009KT 35/18 A2994 RMK A01 T03540183  RH  036%=      5-min Rain = 0
KMC4 022102Z 14011KT 36/18 A2994 RMK A01 T03600183  RH  035%=      5-min Rain = 0
KMC4 022103Z 13012KT 36/18 A2994 RMK A01 T03620183  RH  035%=      5-min Rain = 0
KMC4 022104Z 12012KT 37/18 A2994 RMK A01 T03650184  RH  035%=      5-min Rain = 0
KMC4 022105Z 12010KT 36/18 A2994 RMK A01 T03640182  RH  034%=      5-min Rain = 0
KMC4 022106Z 12010G16KT 36/18 A2994 RMK A01 T03590181  RH  035%=      5-min Rain = 0
KMC4 022107Z 11014G19KT 36/18 A2994 RMK A01 T03590181  RH  035%=      5-min Rain = 0
KMC4 022108Z 13014KT 36/18 A2994 RMK A01 T03630181  RH  034%=      5-min Rain = 0
KMC4 022109Z 13014KT 36/18 A2994 RMK A01 T03630182  RH  035%=      5-min Rain = 0
KMC4 022110Z 16012KT 36/18 A2994 RMK A01 T03620183  RH  035%=      5-min Rain = 0
KMC4 022111Z 16012G17KT 36/18 A2994 RMK A01 T03620182  RH  035%=      5-min Rain = 0
KMC4 022112Z 16015KT 36/18 A2994 RMK A01 T03630183  RH  035%=      5-min Rain = 0
KMC4 022113Z 17011KT 36/18 A2994 RMK A01 T03610181  RH  035%=      5-min Rain = 0
KMC4 022114Z 15011KT 36/18 A2994 RMK A01 T03570181  RH  035%=      5-min Rain = 0
KMC4 022115Z 14010KT 36/18 A2994 RMK A01 T03560181  RH  036%=      5-min Rain = 0
KMC4 022116Z 10010KT 36/18 A2994 RMK A01 T03590179  RH  035%=      5-min Rain = 0
KMC4 022117Z 09012KT 36/18 A2993 RMK A01 T03600177  RH  034%=      5-min Rain = 0
KMC4 022118Z 11013KT 36/18 A2994 RMK A01 T03620178  RH  034%=      5-min Rain = 0
KMC4 022119Z 11011KT 36/18 A2994 RMK A01 T03610177  RH  034%=      5-min Rain = 0
KMC4 022120Z 13008KT 36/18 A2994 RMK A01 T03600177  RH  034%=      5-min Rain = 0
KMC4 022121Z 15015G20KT 36/18 A2994 RMK A01 T03620178  RH  034%=      5-min Rain = 0
KMC4 022122Z 15017KT 36/18 A2994 RMK A01 T03630178  RH  034%=      5-min Rain = 0
KMC4 022123Z 13013KT 36/18 A2994 RMK A01 T03620176  RH  034%=      5-min Rain = 0
KMC4 022124Z 12014KT 36/18 A2994 RMK A01 T03610175  RH  034%=      5-min Rain = 0
KMC4 022125Z 13016KT 36/18 A2994 RMK A01 T03630176  RH  033%=      5-min Rain = 0
KMC4 022126Z 13011KT 36/17 A2994 RMK A01 T03640174  RH  033%=      5-min Rain = 0
KMC4 022127Z 14009KT 36/17 A2994 RMK A01 T03610173  RH  033%=      5-min Rain = 0
KMC4 022128Z 15010KT 36/17 A2994 RMK A01 T03590174  RH  033%=      5-min Rain = 0
KMC4 022129Z 14012KT 36/18 A2994 RMK A01 T03580175  RH  034%=      5-min Rain = 0
KMC4 022130Z 14018KT 36/18 A2994 RMK A01 T03610178  RH  034%=      5-min Rain = 0
KMC4 022131Z 15014KT 36/18 A2994 RMK A01 T03640178  RH  034%=      5-min Rain = 0
KMC4 022132Z 15014KT 36/18 A2994 RMK A01 T03620179  RH  034%=      5-min Rain = 0
KMC4 022133Z 14016KT 37/18 A2994 RMK A01 T03650177  RH  033%=      5-min Rain = 0
KMC4 022134Z 15012G17KT 36/18 A2994 RMK A01 T03620176  RH  033%=      5-min Rain = 0
KMC4 022135Z 13015KT 36/18 A2994 RMK A01 T03620177  RH  034%=      5-min Rain = 0
KMC4 022136Z 14013G18KT 37/18 A2993 RMK A01 T03650177  RH  033%=      5-min Rain = 0
KMC4 022137Z 15017KT 37/18 A2993 RMK A01 T03690177  RH  032%=      5-min Rain = 0
KMC4 022138Z 16015KT 37/18 A2993 RMK A01 T03650175  RH  033%=      5-min Rain = 0
KMC4 022139Z 17010KT 36/17 A2993 RMK A01 T03630174  RH  033%=      5-min Rain = 0
KMC4 022140Z 16013KT 36/17 A2993 RMK A01 T03640174  RH  033%=      5-min Rain = 0
KMC4 022141Z 15010KT 36/17 A2993 RMK A01 T03640174  RH  033%=      5-min Rain = 0
KMC4 022142Z 14008KT 36/18 A2993 RMK A01 T03630175  RH  033%=      5-min Rain = 0
KMC4 022143Z 14012G19KT 36/18 A2993 RMK A01 T03640176  RH  033%=      5-min Rain = 0
KMC4 022144Z 15018KT 36/18 A2993 RMK A01 T03640177  RH  033%=      5-min Rain = 0
KMC4 022145Z 15018KT 36/18 A2993 RMK A01 T03620176  RH  033%=      5-min Rain = 0
KMC4 022146Z 15014KT 36/18 A2993 RMK A01 T03600175  RH  034%=      5-min Rain = 0
KMC4 022147Z 16014KT 36/18 A2993 RMK A01 T03590175  RH  034%=      5-min Rain = 0
KMC4 022148Z 16016G22KT 36/18 A2993 RMK A01 T03610175  RH  034%=      5-min Rain = 0
KMC4 022149Z 16014G22KT 36/17 A2993 RMK A01 T03620173  RH  033%=      5-min Rain = 0
KMC4 022150Z 15011KT 36/17 A2993 RMK A01 T03580173  RH  034%=      5-min Rain = 0
KMC4 022151Z 15011KT 36/17 A2993 RMK A01 T03560173  RH  034%=      5-min Rain = 0
KMC4 022152Z 14011KT 36/17 A2993 RMK A01 T03570174  RH  034%=      5-min Rain = 0
KMC4 022153Z 16010KT 36/18 A2993 RMK A01 T03620177  RH  034%=      5-min Rain = 0
KMC4 022154Z 16011KT 37/18 A2993 RMK A01 T03690179  RH  033%=      5-min Rain = 0
KMC4 022155Z 17013KT 37/18 A2993 RMK A01 T03660178  RH  033%=      5-min Rain = 0
KMC4 022156Z 16013KT 36/18 A2993 RMK A01 T03620179  RH  034%=      5-min Rain = 0
KMC4 022157Z 13010KT 36/18 A2993 RMK A01 T03620179  RH  034%=      5-min Rain = 0
KMC4 022158Z 14011KT 36/18 A2993 RMK A01 T03630180  RH  034%=      5-min Rain = 0
KMC4 022159Z 14018KT 36/18 A2993 RMK A01 T03640180  RH  034%=      5-min Rain = 0
KMC4 022200Z 13019KT 36/18 A2993 RMK A01 T03600178  RH  034%=      5-min Rain = 0
KMC4 022201Z 12019G24KT 36/18 A2993 RMK A01 T03570175  RH  034%=      5-min Rain = 0
KMC4 022202Z 11017KT 36/17 A2993 RMK A01 T03560174  RH  034%=      5-min Rain = 0
KMC4 022203Z 12016KT 35/18 A2993 RMK A01 T03530175  RH  035%=      5-min Rain = 0
KMC4 022204Z 12016KT 35/18 A2994 RMK A01 T03540175  RH  035%=      5-min Rain = 0
KMC4 022205Z 11013KT 36/18 A2994 RMK A01 T03550176  RH  035%=      5-min Rain = 0
KMC4 022206Z 12011KT 36/18 A2994 RMK A01 T03580176  RH  034%=      5-min Rain = 0
KMC4 022207Z 12013KT 36/18 A2993 RMK A01 T03570176  RH  035%=      5-min Rain = 0
KMC4 022208Z 12012KT 36/18 A2993 RMK A01 T03570176  RH  034%=      5-min Rain = 0
KMC4 022209Z 15010KT 36/18 A2994 RMK A01 T03600176  RH  034%=      5-min Rain = 0
KMC4 022210Z 16010KT 36/18 A2993 RMK A01 T03620177  RH  034%=      5-min Rain = 0
KMC4 022211Z 15011KT 36/18 A2993 RMK A01 T03610177  RH  034%=      5-min Rain = 0
KMC4 022212Z 15016KT 36/18 A2993 RMK A01 T03620178  RH  034%=      5-min Rain = 0
KMC4 022213Z 15017KT 37/18 A2993 RMK A01 T03650178  RH  033%=      5-min Rain = 0
KMC4 022214Z 16017KT 36/18 A2993 RMK A01 T03640176  RH  033%=      5-min Rain = 0
KMC4 022215Z 17014KT 36/18 A2993 RMK A01 T03610176  RH  034%=      5-min Rain = 0
KMC4 022216Z 17013KT 36/18 A2993 RMK A01 T03590175  RH  034%=      5-min Rain = 0
KMC4 022217Z 17012KT 36/17 A2993 RMK A01 T03590174  RH  034%=      5-min Rain = 0
KMC4 022218Z 17011KT 36/17 A2993 RMK A01 T03580174  RH  034%=      5-min Rain = 0
KMC4 022219Z 16011KT 36/18 A2993 RMK A01 T03590176  RH  034%=      5-min Rain = 0
KMC4 022220Z 16013KT 36/18 A2993 RMK A01 T03620175  RH  033%=      5-min Rain = 0
KMC4 022221Z 16012G17KT 36/18 A2993 RMK A01 T03640176  RH  033%=      5-min Rain = 0
KMC4 022222Z 14013KT 37/18 A2993 RMK A01 T03660175  RH  032%=      5-min Rain = 0
KMC4 022223Z 14016G21KT 37/18 A2993 RMK A01 T03660175  RH  032%=      5-min Rain = 0
KMC4 022224Z 14016KT 36/18 A2993 RMK A01 T03640176  RH  033%=      5-min Rain = 0
KMC4 022225Z 14014KT 36/18 A2993 RMK A01 T03630176  RH  033%=      5-min Rain = 0
KMC4 022226Z 15013G19KT 36/18 A2993 RMK A01 T03640175  RH  033%=      5-min Rain = 0
KMC4 022227Z 15014G19KT 36/17 A2993 RMK A01 T03630173  RH  033%=      5-min Rain = 0
KMC4 022228Z 17010KT 36/17 A2993 RMK A01 T03580172  RH  033%=      5-min Rain = 0
KMC4 022229Z 18011KT 36/17 A2993 RMK A01 T03560171  RH  033%=      5-min Rain = 0
KMC4 022230Z 15008KT 36/17 A2993 RMK A01 T03550172  RH  034%=      5-min Rain = 0
KMC4 022231Z 15010KT 36/17 A2993 RMK A01 T03570171  RH  033%=      5-min Rain = 0
KMC4 022232Z 16010KT 36/17 A2993 RMK A01 T03620170  RH  032%=      5-min Rain = 0
KMC4 022233Z 15009KT 36/17 A2993 RMK A01 T03640171  RH  032%=      5-min Rain = 0
KMC4 022234Z 17009KT 37/17 A2993 RMK A01 T03650173  RH  032%=      5-min Rain = 0
KMC4 022235Z 15014KT 37/18 A2993 RMK A01 T03650175  RH  033%=      5-min Rain = 0
KMC4 022236Z 14015KT 37/18 A2993 RMK A01 T03670178  RH  033%=      5-min Rain = 0
KMC4 022237Z 15016G21KT 37/18 A2993 RMK A01 T03660178  RH  033%=      5-min Rain = 0
KMC4 022238Z 14014KT 36/18 A2993 RMK A01 T03640176  RH  033%=      5-min Rain = 0
KMC4 022239Z 13017KT 36/18 A2993 RMK A01 T03620176  RH  033%=      5-min Rain = 0
KMC4 022240Z 15015KT 36/18 A2993 RMK A01 T03590176  RH  034%=      5-min Rain = 0
KMC4 022241Z 15012KT 36/18 A2993 RMK A01 T03590176  RH  034%=      5-min Rain = 0
KMC4 022242Z 13011KT 36/18 A2993 RMK A01 T03600176  RH  034%=      5-min Rain = 0
KMC4 022243Z 13016KT 36/18 A2993 RMK A01 T03590175  RH  034%=      5-min Rain = 0
KMC4 022244Z 14014G19KT 36/18 A2993 RMK A01 T03550176  RH  035%=      5-min Rain = 0
KMC4 022245Z 16014KT 36/18 A2993 RMK A01 T03550178  RH  035%=      5-min Rain = 0
KMC4 022246Z 14016KT 36/18 A2993 RMK A01 T03550178  RH  035%=      5-min Rain = 0
KMC4 022247Z 13016KT 35/18 A2993 RMK A01 T03540177  RH  035%=      5-min Rain = 0
KMC4 022248Z 13014KT 35/18 A2993 RMK A01 T03520176  RH  035%=      5-min Rain = 0
KMC4 022249Z 13011KT 35/18 A2993 RMK A01 T03500177  RH  036%=      5-min Rain = 0
KMC4 022250Z 14013KT 35/18 A2993 RMK A01 T03520176  RH  035%=      5-min Rain = 0
KMC4 022251Z 14012KT 35/18 A2993 RMK A01 T03540175  RH  035%=      5-min Rain = 0
KMC4 022252Z 14012KT 35/17 A2993 RMK A01 T03530174  RH  035%=      5-min Rain = 0
KMC4 022253Z 14013KT 35/17 A2993 RMK A01 T03520173  RH  035%=      5-min Rain = 0
KMC4 022254Z 14013KT 35/18 A2993 RMK A01 T03520175  RH  035%=      5-min Rain = 0
KMC4 022255Z 12011KT 35/18 A2993 RMK A01 T03510175  RH  035%=      5-min Rain = 0
KMC4 022256Z 13014KT 35/18 A2993 RMK A01 T03500175  RH  035%=      5-min Rain = 0
KMC4 022257Z 13014KT 35/18 A2993 RMK A01 T03490176  RH  036%=      5-min Rain = 0
KMC4 022258Z 13017KT 35/18 A2993 RMK A01 T03490176  RH  036%=      5-min Rain = 0
KMC4 022259Z 13015KT 35/18 A2993 RMK A01 T03480176  RH  036%=      5-min Rain = 0
KMC4 022300Z 13013KT 35/18 A2993 RMK A01 T03490175  RH  036%=      5-min Rain = 0
KMC4 022301Z 13014KT 35/17 A2993 RMK A01 T03490174  RH  035%=      5-min Rain = 0
KMC4 022302Z 14015KT 35/17 A2993 RMK A01 T03490174  RH  036%=      5-min Rain = 0
KMC4 022303Z 13014KT 35/18 A2993 RMK A01 T03490175  RH  036%=      5-min Rain = 0
KMC4 022304Z 14016KT 35/18 A2993 RMK A01 T03480176  RH  036%=      5-min Rain = 0
KMC4 022305Z 14017KT 35/18 A2993 RMK A01 T03480177  RH  036%=      5-min Rain = 0
KMC4 022306Z 14016KT 35/18 A2993 RMK A01 T03480176  RH  036%=      5-min Rain = 0
KMC4 022307Z 16014KT 35/18 A2993 RMK A01 T03490176  RH  036%=      5-min Rain = 0
KMC4 022308Z 14013KT 35/18 A2993 RMK A01 T03480176  RH  036%=      5-min Rain = 0
KMC4 022309Z 14012KT 35/18 A2993 RMK A01 T03490177  RH  036%=      5-min Rain = 0
KMC4 022310Z 15013KT 35/18 A2993 RMK A01 T03500177  RH  036%=      5-min Rain = 0
KMC4 022311Z 15013KT 35/18 A2993 RMK A01 T03500176  RH  036%=      5-min Rain = 0
KMC4 022312Z 15012KT 35/18 A2993 RMK A01 T03490176  RH  036%=      5-min Rain = 0
KMC4 022313Z 14012KT 35/18 A2993 RMK A01 T03500175  RH  036%=      5-min Rain = 0
KMC4 022314Z 13013KT 35/18 A2993 RMK A01 T03520175  RH  035%=      5-min Rain = 0
KMC4 022315Z 13013KT 35/18 A2993 RMK A01 T03520175  RH  035%=      5-min Rain = 0
KMC4 022316Z 13013KT 35/17 A2993 RMK A01 T03520174  RH  035%=      5-min Rain = 0
KMC4 022317Z 13012KT 35/17 A2993 RMK A01 T03510174  RH  035%=      5-min Rain = 0
KMC4 022318Z 14013KT 35/18 A2993 RMK A01 T03510176  RH  035%=      5-min Rain = 0
KMC4 022319Z 16016KT 35/18 A2993 RMK A01 T03520177  RH  036%=      5-min Rain = 0
KMC4 022320Z 16015KT 35/18 A2993 RMK A01 T03520177  RH  036%=      5-min Rain = 0
KMC4 022321Z 15016KT 35/18 A2992 RMK A01 T03510176  RH  036%=      5-min Rain = 0
KMC4 022322Z 16014KT 35/18 A2992 RMK A01 T03510176  RH  036%=      5-min Rain = 0
KMC4 022323Z 16015KT 35/18 A2992 RMK A01 T03500176  RH  036%=      5-min Rain = 0
KMC4 022324Z 14014KT 35/18 A2992 RMK A01 T03500175  RH  036%=      5-min Rain = 0
KMC4 022325Z 13014KT 35/17 A2992 RMK A01 T03510174  RH  035%=      5-min Rain = 0
KMC4 022326Z 14014KT 35/17 A2992 RMK A01 T03530174  RH  035%=      5-min Rain = 0
KMC4 022327Z 12015KT 36/17 A2992 RMK A01 T03550174  RH  034%=      5-min Rain = 0
KMC4 022328Z 13014KT 35/17 A2992 RMK A01 T03530173  RH  034%=      5-min Rain = 0
KMC4 022329Z 14012G18KT 35/17 A2992 RMK A01 T03540174  RH  034%=      5-min Rain = 0
KMC4 022330Z 14018KT 36/17 A2992 RMK A01 T03560174  RH  034%=      5-min Rain = 0
KMC4 022331Z 15016KT 36/17 A2992 RMK A01 T03560174  RH  034%=      5-min Rain = 0
KMC4 022332Z 14011KT 35/17 A2992 RMK A01 T03540173  RH  034%=      5-min Rain = 0
KMC4 022333Z 15013KT 36/17 A2992 RMK A01 T03550174  RH  034%=      5-min Rain = 0
KMC4 022334Z 15012KT 36/17 A2992 RMK A01 T03560174  RH  034%=      5-min Rain = 0
KMC4 022335Z 16013KT 36/17 A2991 RMK A01 T03570174  RH  034%=      5-min Rain = 0
KMC4 022336Z 16017KT 36/17 A2991 RMK A01 T03560174  RH  034%=      5-min Rain = 0
KMC4 022337Z 15015G21KT 35/17 A2991 RMK A01 T03540173  RH  034%=      5-min Rain = 0
KMC4 022338Z 16014G19KT 35/17 A2991 RMK A01 T03530174  RH  035%=      5-min Rain = 0
KMC4 022339Z 17016KT 35/17 A2991 RMK A01 T03530174  RH  035%=      5-min Rain = 0
KMC4 022340Z 17016KT 35/17 A2991 RMK A01 T03510173  RH  035%=      5-min Rain = 0
KMC4 022341Z 18015KT 35/17 A2991 RMK A01 T03510173  RH  035%=      5-min Rain = 0
KMC4 022342Z 16017KT 35/17 A2991 RMK A01 T03520173  RH  035%=      5-min Rain = 0
KMC4 022343Z 15015KT 35/17 A2991 RMK A01 T03510172  RH  035%=      5-min Rain = 0
KMC4 022344Z 15015KT 35/17 A2991 RMK A01 T03490171  RH  035%=      5-min Rain = 0
KMC4 022345Z 15014KT 35/17 A2991 RMK A01 T03480171  RH  035%=      5-min Rain = 0
KMC4 022346Z 15016KT 35/17 A2991 RMK A01 T03500172  RH  035%=      5-min Rain = 0
KMC4 022347Z 15017KT 35/17 A2991 RMK A01 T03510172  RH  035%=      5-min Rain = 0
KMC4 022348Z 15017KT 35/17 A2991 RMK A01 T03520171  RH  034%=      5-min Rain = 0
KMC4 022349Z 15016KT 35/17 A2991 RMK A01 T03510170  RH  034%=      5-min Rain = 0
KMC4 022350Z 17014KT 35/17 A2991 RMK A01 T03500171  RH  035%=      5-min Rain = 0
KMC4 022351Z 17014KT 35/17 A2991 RMK A01 T03490172  RH  035%=      5-min Rain = 0
KMC4 022352Z 16017KT 35/17 A2991 RMK A01 T03480172  RH  035%=      5-min Rain = 0
KMC4 022353Z 16018KT 35/17 A2991 RMK A01 T03480173  RH  035%=      5-min Rain = 0
KMC4 022354Z 16017KT 35/17 A2992 RMK A01 T03480174  RH  036%=      5-min Rain = 0
KMC4 022355Z 16016G21KT 35/18 A2992 RMK A01 T03490175  RH  036%=      5-min Rain = 0
KMC4 022356Z 15015KT 35/18 A2992 RMK A01 T03490176  RH  036%=      5-min Rain = 0
KMC4 022357Z 14015KT 35/18 A2992 RMK A01 T03490177  RH  036%=      5-min Rain = 0
KMC4 022358Z 13018KT 35/18 A2992 RMK A01 T03490177  RH  036%=      5-min Rain = 0
KMC4 022359Z 14015KT 35/18 A2992 RMK A01 T03480177  RH  036%=      5-min Rain = 0
KMC4 030000Z 14015KT 35/18 A2992 RMK A01 T03480177  RH  036%=      5-min Rain = 0
KMC4 030001Z 16015KT 35/18 A2992 RMK A01 T03470178  RH  037%=      5-min Rain = 0
KMC4 030002Z 16013KT 35/18 A2992 RMK A01 T03470179  RH  037%=      5-min Rain = 0
KMC4 030003Z 16015KT 35/18 A2992 RMK A01 T03460179  RH  037%=      5-min Rain = 0
KMC4 030004Z 17018KT 34/18 A2992 RMK A01 T03440178  RH  038%=      5-min Rain = 0
KMC4 030005Z 16016KT 34/18 A2992 RMK A01 T03420177  RH  038%=      5-min Rain = 0
KMC4 030006Z 15014KT 34/18 A2992 RMK A01 T03400177  RH  038%=      5-min Rain = 0
KMC4 030007Z 15017KT 34/18 A2992 RMK A01 T03400178  RH  038%=      5-min Rain = 0
KMC4 030008Z 16015KT 34/18 A2992 RMK A01 T03400178  RH  038%=      5-min Rain = 0
KMC4 030009Z 15014G19KT 34/18 A2992 RMK A01 T03400178  RH  038%=      5-min Rain = 0
KMC4 030010Z 15016KT 34/18 A2992 RMK A01 T03390178  RH  038%=      5-min Rain = 0
KMC4 030011Z 16014KT 34/18 A2992 RMK A01 T03380179  RH  039%=      5-min Rain = 0
KMC4 030012Z 16012KT 34/18 A2992 RMK A01 T03370179  RH  039%=      5-min Rain = 0
KMC4 030013Z 17015KT 34/18 A2992 RMK A01 T03360179  RH  039%=      5-min Rain = 0
KMC4 030014Z 16018KT 34/18 A2992 RMK A01 T03350179  RH  040%=      5-min Rain = 0
KMC4 030015Z 16017KT 33/18 A2992 RMK A01 T03340179  RH  040%=      5-min Rain = 0
KMC4 030016Z 16017KT 33/18 A2992 RMK A01 T03340177  RH  040%=      5-min Rain = 0
KMC4 030017Z 16017KT 33/18 A2992 RMK A01 T03340177  RH  039%=      5-min Rain = 0
KMC4 030018Z 16017KT 33/18 A2992 RMK A01 T03340176  RH  039%=      5-min Rain = 0
KMC4 030019Z 16013KT 33/18 A2993 RMK A01 T03330175  RH  039%=      5-min Rain = 0
KMC4 030020Z 15015KT 33/17 A2993 RMK A01 T03330174  RH  039%=      5-min Rain = 0
KMC4 030021Z 16013KT 33/17 A2993 RMK A01 T03330174  RH  039%=      5-min Rain = 0
KMC4 030022Z 16010KT 33/17 A2993 RMK A01 T03340174  RH  039%=      5-min Rain = 0
KMC4 030023Z 16014KT 33/17 A2993 RMK A01 T03340174  RH  038%=      5-min Rain = 0
KMC4 030024Z 16015KT 33/17 A2993 RMK A01 T03340172  RH  038%=      5-min Rain = 0
KMC4 030025Z 16014KT 33/17 A2993 RMK A01 T03340171  RH  038%=      5-min Rain = 0
KMC4 030026Z 17014KT 33/17 A2993 RMK A01 T03340171  RH  038%=      5-min Rain = 0
KMC4 030027Z 16016KT 33/17 A2993 RMK A01 T03340171  RH  038%=      5-min Rain = 0
KMC4 030028Z 16015KT 33/17 A2993 RMK A01 T03330171  RH  038%=      5-min Rain = 0
KMC4 030029Z 16017KT 33/17 A2993 RMK A01 T03330170  RH  038%=      5-min Rain = 0
KMC4 030030Z 16014KT 33/17 A2993 RMK A01 T03340170  RH  038%=      5-min Rain = 0
KMC4 030031Z 16013KT 34/17 A2993 RMK A01 T03350171  RH  038%=      5-min Rain = 0
KMC4 030032Z 16012KT 34/17 A2993 RMK A01 T03350171  RH  038%=      5-min Rain = 0
KMC4 030033Z 16012KT 34/17 A2993 RMK A01 T03360172  RH  038%=      5-min Rain = 0
KMC4 030034Z 16010KT 34/17 A2993 RMK A01 T03360171  RH  037%=      5-min Rain = 0
KMC4 030035Z 15012KT 34/17 A2993 RMK A01 T03370171  RH  037%=      5-min Rain = 0
KMC4 030036Z 15013KT 34/17 A2993 RMK A01 T03370170  RH  037%=      5-min Rain = 0
KMC4 030037Z 15012KT 34/17 A2993 RMK A01 T03380168  RH  036%=      5-min Rain = 0
KMC4 030038Z 15016KT 34/17 A2993 RMK A01 T03390166  RH  036%=      5-min Rain = 0
KMC4 030039Z 16013KT 34/17 A2993 RMK A01 T03390167  RH  036%=      5-min Rain = 0
KMC4 030040Z 16013KT 34/17 A2993 RMK A01 T03390167  RH  036%=      5-min Rain = 0
KMC4 030041Z 16014KT 34/17 A2993 RMK A01 T03380167  RH  036%=      5-min Rain = 0
KMC4 030042Z 15015KT 34/17 A2993 RMK A01 T03370168  RH  037%=      5-min Rain = 0
KMC4 030043Z 15014KT 34/17 A2993 RMK A01 T03370169  RH  037%=      5-min Rain = 0
KMC4 030044Z 15011KT 34/17 A2993 RMK A01 T03370169  RH  037%=      5-min Rain = 0
KMC4 030045Z 15012KT 34/17 A2993 RMK A01 T03390169  RH  036%=      5-min Rain = 0
KMC4 030046Z 15015KT 34/17 A2993 RMK A01 T03400168  RH  036%=      5-min Rain = 0
KMC4 030047Z 15013KT 34/17 A2993 RMK A01 T03390166  RH  036%=      5-min Rain = 0
KMC4 030048Z 16015KT 34/17 A2993 RMK A01 T03380166  RH  036%=      5-min Rain = 0
KMC4 030049Z 15015KT 34/17 A2993 RMK A01 T03380165  RH  036%=      5-min Rain = 0
KMC4 030050Z 15015KT 34/17 A2993 RMK A01 T03370165  RH  036%=      5-min Rain = 0
KMC4 030051Z 16013KT 34/17 A2993 RMK A01 T03360165  RH  036%=      5-min Rain = 0
KMC4 030052Z 16017KT 34/17 A2993 RMK A01 T03370166  RH  036%=      5-min Rain = 0
KMC4 030053Z 16013KT 34/17 A2993 RMK A01 T03360166  RH  036%=      5-min Rain = 0
KMC4 030054Z 15016KT 34/17 A2993 RMK A01 T03350167  RH  037%=      5-min Rain = 0
KMC4 030055Z 15016KT 34/17 A2993 RMK A01 T03350169  RH  037%=      5-min Rain = 0
KMC4 030056Z 15014G20KT 34/17 A2993 RMK A01 T03350169  RH  037%=      5-min Rain = 0
KMC4 030057Z 16016KT 34/17 A2993 RMK A01 T03350171  RH  038%=      5-min Rain = 0
KMC4 030058Z 16014KT 33/17 A2993 RMK A01 T03340171  RH  038%=      5-min Rain = 0
KMC4 030059Z 16015KT 33/17 A2993 RMK A01 T03340171  RH  038%=      5-min Rain = 0
KMC4 030100Z 15012KT 33/17 A2993 RMK A01 T03330171  RH  038%=      5-min Rain = 0
KMC4 030101Z 15015KT 33/17 A2994 RMK A01 T03330171  RH  038%=      5-min Rain = 0
KMC4 030102Z 16016KT 33/17 A2994 RMK A01 T03320171  RH  038%=      5-min Rain = 0
KMC4 030103Z 15014G20KT 33/17 A2994 RMK A01 T03310171  RH  038%=      5-min Rain = 0
KMC4 030104Z 14018KT 33/17 A2994 RMK A01 T03310171  RH  038%=      5-min Rain = 0
KMC4 030105Z 15018KT 33/17 A2994 RMK A01 T03300172  RH  039%=      5-min Rain = 0
KMC4 030106Z 15015KT 33/17 A2994 RMK A01 T03290172  RH  039%=      5-min Rain = 0
KMC4 030107Z 15013KT 33/17 A2994 RMK A01 T03290172  RH  039%=      5-min Rain = 0
KMC4 030108Z 16013KT 33/17 A2994 RMK A01 T03290172  RH  039%=      5-min Rain = 0
KMC4 030109Z 16013KT 33/17 A2994 RMK A01 T03290172  RH  039%=      5-min Rain = 0
KMC4 030110Z 16015KT 33/17 A2994 RMK A01 T03290172  RH  039%=      5-min Rain = 0
KMC4 030111Z 15013KT 33/17 A2994 RMK A01 T03270172  RH  039%=      5-min Rain = 0
KMC4 030112Z 15016KT 33/17 A2994 RMK A01 T03270171  RH  039%=      5-min Rain = 0
KMC4 030113Z 15017KT 33/17 A2994 RMK A01 T03270169  RH  039%=      5-min Rain = 0
KMC4 030114Z 15015G20KT 33/17 A2994 RMK A01 T03260168  RH  039%=      5-min Rain = 0
KMC4 030115Z 15016KT 33/17 A2994 RMK A01 T03250167  RH  039%=      5-min Rain = 0
KMC4 030116Z 16016KT 33/17 A2994 RMK A01 T03250167  RH  039%=      5-min Rain = 0
KMC4 030117Z 16016KT 33/17 A2993 RMK A01 T03250167  RH  039%=      5-min Rain = 0
KMC4 030118Z 15016KT 32/17 A2994 RMK A01 T03240167  RH  039%=      5-min Rain = 0
KMC4 030119Z 15017KT 32/17 A2994 RMK A01 T03240167  RH  039%=      5-min Rain = 0
KMC4 030120Z 15015KT 32/17 A2994 RMK A01 T03240167  RH  039%=      5-min Rain = 0
KMC4 030121Z 15017KT 32/17 A2994 RMK A01 T03240168  RH  039%=      5-min Rain = 0
KMC4 030122Z 15016KT 32/17 A2994 RMK A01 T03230169  RH  040%=      5-min Rain = 0
KMC4 030123Z 15018KT 32/17 A2994 RMK A01 T03220170  RH  040%=      5-min Rain = 0
KMC4 030124Z 15015KT 32/17 A2994 RMK A01 T03220171  RH  040%=      5-min Rain = 0
KMC4 030125Z 15014KT 32/17 A2994 RMK A01 T03210171  RH  041%=      5-min Rain = 0
KMC4 030126Z 16016KT 32/17 A2994 RMK A01 T03220171  RH  041%=      5-min Rain = 0
KMC4 030127Z 16014KT 32/17 A2994 RMK A01 T03210171  RH  041%=      5-min Rain = 0
KMC4 030128Z 15013KT 32/17 A2994 RMK A01 T03210171  RH  041%=      5-min Rain = 0
KMC4 030129Z 15013KT 32/17 A2994 RMK A01 T03210171  RH  041%=      5-min Rain = 0
KMC4 030130Z 14014KT 32/17 A2994 RMK A01 T03210172  RH  041%=      5-min Rain = 0
KMC4 030131Z 14012KT 32/17 A2994 RMK A01 T03210172  RH  041%=      5-min Rain = 0
KMC4 030132Z 15011KT 32/17 A2994 RMK A01 T03200172  RH  041%=      5-min Rain = 0
KMC4 030133Z 16015KT 32/17 A2994 RMK A01 T03200172  RH  041%=      5-min Rain = 0
KMC4 030134Z 15015KT 32/17 A2994 RMK A01 T03200172  RH  041%=      5-min Rain = 0
KMC4 030135Z 15014KT 32/17 A2994 RMK A01 T03190172  RH  041%=      5-min Rain = 0
KMC4 030136Z 15011KT 32/17 A2994 RMK A01 T03190173  RH  042%=      5-min Rain = 0
KMC4 030137Z 15012KT 32/17 A2994 RMK A01 T03190173  RH  042%=      5-min Rain = 0
KMC4 030138Z 15012KT 32/17 A2994 RMK A01 T03190173  RH  042%=      5-min Rain = 0
KMC4 030139Z 16014KT 32/17 A2994 RMK A01 T03180173  RH  042%=      5-min Rain = 0
KMC4 030140Z 15012KT 32/17 A2994 RMK A01 T03180174  RH  042%=      5-min Rain = 0
KMC4 030141Z 15012KT 32/17 A2994 RMK A01 T03180174  RH  042%=      5-min Rain = 0
KMC4 030142Z 14013KT 32/18 A2994 RMK A01 T03170175  RH  043%=      5-min Rain = 0
KMC4 030143Z 15011KT 32/18 A2994 RMK A01 T03170176  RH  043%=      5-min Rain = 0
KMC4 030144Z 15011KT 32/18 A2994 RMK A01 T03160175  RH  043%=      5-min Rain = 0
KMC4 030145Z 15014KT 32/18 A2994 RMK A01 T03160176  RH  043%=      5-min Rain = 0
KMC4 030146Z 16016KT 32/18 A2994 RMK A01 T03160177  RH  043%=      5-min Rain = 0
KMC4 030147Z 15013KT 32/18 A2994 RMK A01 T03160177  RH  044%=      5-min Rain = 0
KMC4 030148Z 15012G17KT 32/18 A2994 RMK A01 T03150177  RH  044%=      5-min Rain = 0
KMC4 030149Z 16014KT 32/18 A2994 RMK A01 T03150177  RH  044%=      5-min Rain = 0
KMC4 030150Z 16014KT 31/18 A2994 RMK A01 T03140177  RH  044%=      5-min Rain = 0
KMC4 030151Z 15014G19KT 31/18 A2995 RMK A01 T03130177  RH  044%=      5-min Rain = 0
KMC4 030152Z 16013G18KT 31/18 A2994 RMK A01 T03130177  RH  044%=      5-min Rain = 0
KMC4 030153Z 16012KT 31/18 A2994 RMK A01 T03130177  RH  044%=      5-min Rain = 0
KMC4 030154Z 16016KT 31/18 A2995 RMK A01 T03120177  RH  045%=      5-min Rain = 0
KMC4 030155Z 16014KT 31/18 A2995 RMK A01 T03120177  RH  045%=      5-min Rain = 0
KMC4 030156Z 16016KT 31/18 A2995 RMK A01 T03110177  RH  045%=      5-min Rain = 0
KMC4 030157Z 16015KT 31/18 A2995 RMK A01 T03110177  RH  045%=      5-min Rain = 0
KMC4 030158Z 15013KT 31/18 A2995 RMK A01 T03110177  RH  045%=      5-min Rain = 0
KMC4 030159Z 15014KT 31/18 A2995 RMK A01 T03110176  RH  045%=      5-min Rain = 0
KMC4 030200Z 15015KT 31/18 A2995 RMK A01 T03110176  RH  045%=      5-min Rain = 0
KMC4 030201Z 16017KT 31/18 A2995 RMK A01 T03100176  RH  045%=      5-min Rain = 0
KMC4 030202Z 16017KT 31/18 A2995 RMK A01 T03100175  RH  044%=      5-min Rain = 0
KMC4 030203Z 16016KT 31/18 A2995 RMK A01 T03100175  RH  044%=      5-min Rain = 0
KMC4 030204Z 15016KT 31/18 A2995 RMK A01 T03100175  RH  045%=      5-min Rain = 0
KMC4 030205Z 15015KT 31/18 A2995 RMK A01 T03100176  RH  045%=      5-min Rain = 0
KMC4 030206Z 15015KT 31/18 A2995 RMK A01 T03100176  RH  045%=      5-min Rain = 0
KMC4 030207Z 15013KT 31/18 A2995 RMK A01 T03100176  RH  045%=      5-min Rain = 0
KMC4 030208Z 16013KT 31/18 A2995 RMK A01 T03090176  RH  045%=      5-min Rain = 0
KMC4 030209Z 15013KT 31/18 A2995 RMK A01 T03080176  RH  045%=      5-min Rain = 0
KMC4 030210Z 15013KT 31/18 A2995 RMK A01 T03080177  RH  045%=      5-min Rain = 0
KMC4 030211Z 16014KT 31/18 A2995 RMK A01 T03080177  RH  046%=      5-min Rain = 0
KMC4 030212Z 16012G17KT 31/18 A2995 RMK A01 T03080178  RH  046%=      5-min Rain = 0
KMC4 030213Z 15013KT 31/18 A2996 RMK A01 T03080178  RH  046%=      5-min Rain = 0
KMC4 030214Z 15016KT 31/18 A2996 RMK A01 T03070178  RH  046%=      5-min Rain = 0
KMC4 030215Z 15012KT 31/18 A2996 RMK A01 T03070178  RH  046%=      5-min Rain = 0
KMC4 030216Z 16015KT 31/18 A2996 RMK A01 T03070179  RH  046%=      5-min Rain = 0
KMC4 030217Z 15014KT 31/18 A2996 RMK A01 T03070179  RH  046%=      5-min Rain = 0
KMC4 030218Z 16011KT 31/18 A2996 RMK A01 T03070179  RH  046%=      5-min Rain = 0
KMC4 030219Z 15014KT 31/18 A2996 RMK A01 T03070179  RH  046%=      5-min Rain = 0
KMC4 030220Z 15013KT 31/18 A2996 RMK A01 T03070179  RH  046%=      5-min Rain = 0
KMC4 030221Z 15012KT 31/18 A2996 RMK A01 T03070179  RH  046%=      5-min Rain = 0
KMC4 030222Z 15011KT 31/18 A2996 RMK A01 T03060179  RH  046%=      5-min Rain = 0
KMC4 030223Z 15009KT 31/18 A2996 RMK A01 T03060179  RH  047%=      5-min Rain = 0
KMC4 030224Z 15010KT 31/18 A2997 RMK A01 T03060178  RH  047%=      5-min Rain = 0
KMC4 030225Z 15011KT 31/18 A2997 RMK A01 T03060179  RH  047%=      5-min Rain = 0
KMC4 030226Z 15013KT 31/18 A2997 RMK A01 T03060178  RH  047%=      5-min Rain = 0
KMC4 030227Z 15013KT 31/18 A2997 RMK A01 T03050178  RH  046%=      5-min Rain = 0
KMC4 030228Z 15009KT 31/18 A2997 RMK A01 T03050178  RH  046%=      5-min Rain = 0
KMC4 030229Z 15009KT 31/18 A2997 RMK A01 T03050178  RH  047%=      5-min Rain = 0
KMC4 030230Z 15008KT 31/18 A2997 RMK A01 T03050179  RH  047%=      5-min Rain = 0
KMC4 030231Z 15011KT 30/18 A2997 RMK A01 T03040179  RH  047%=      5-min Rain = 0
KMC4 030232Z 16010KT 30/18 A2997 RMK A01 T03040180  RH  047%=      5-min Rain = 0
KMC4 030233Z 15010KT 30/18 A2997 RMK A01 T03040180  RH  047%=      5-min Rain = 0
KMC4 030234Z 15011KT 30/18 A2997 RMK A01 T03040180  RH  047%=      5-min Rain = 0
KMC4 030235Z 15013KT 30/18 A2997 RMK A01 T03030180  RH  048%=      5-min Rain = 0
KMC4 030236Z 15011KT 30/18 A2997 RMK A01 T03040180  RH  048%=      5-min Rain = 0
KMC4 030237Z 15013KT 30/18 A2997 RMK A01 T03030180  RH  048%=      5-min Rain = 0
KMC4 030238Z 15011KT 30/18 A2997 RMK A01 T03030180  RH  048%=      5-min Rain = 0
KMC4 030239Z 15011KT 30/18 A2997 RMK A01 T03030180  RH  048%=      5-min Rain = 0
KMC4 030240Z 15011KT 30/18 A2997 RMK A01 T03030180  RH  048%=      5-min Rain = 0
KMC4 030241Z 15011KT 30/18 A2997 RMK A01 T03030180  RH  048%=      5-min Rain = 0
KMC4 030242Z 15011KT 30/18 A2997 RMK A01 T03030180  RH  048%=      5-min Rain = 0
KMC4 030243Z 14010KT 30/18 A2997 RMK A01 T03030181  RH  048%=      5-min Rain = 0
KMC4 030244Z 15010KT 30/18 A2997 RMK A01 T03020181  RH  048%=      5-min Rain = 0
KMC4 030245Z 16009KT 30/18 A2997 RMK A01 T03020180  RH  048%=      5-min Rain = 0
KMC4 030246Z 16011KT 30/18 A2997 RMK A01 T03020181  RH  048%=      5-min Rain = 0
KMC4 030247Z 16009KT 30/18 A2997 RMK A01 T03020181  RH  049%=      5-min Rain = 0
KMC4 030248Z 15010KT 30/18 A2997 RMK A01 T03010181  RH  049%=      5-min Rain = 0
KMC4 030249Z 15010KT 30/18 A2997 RMK A01 T03010181  RH  049%=      5-min Rain = 0
KMC4 030250Z 15009KT 30/18 A2997 RMK A01 T03010181  RH  049%=      5-min Rain = 0
KMC4 030251Z 15009KT 30/18 A2997 RMK A01 T03010182  RH  049%=      5-min Rain = 0
KMC4 030252Z 15009KT 30/18 A2997 RMK A01 T03010181  RH  049%=      5-min Rain = 0
KMC4 030253Z 15011KT 30/18 A2997 RMK A01 T03010182  RH  049%=      5-min Rain = 0
KMC4 030254Z 15011KT 30/18 A2997 RMK A01 T03010182  RH  049%=      5-min Rain = 0
KMC4 030255Z 14008KT 30/18 A2997 RMK A01 T03010182  RH  049%=      5-min Rain = 0
KMC4 030256Z 14012KT 30/18 A2997 RMK A01 T03000182  RH  049%=      5-min Rain = 0
KMC4 030257Z 15011KT 30/18 A2997 RMK A01 T03000183  RH  049%=      5-min Rain = 0
KMC4 030258Z 15009KT 30/18 A2997 RMK A01 T03000183  RH  049%=      5-min Rain = 0
KMC4 030259Z 15010KT 30/18 A2997 RMK A01 T03000182  RH  049%=      5-min Rain = 0
KMC4 030300Z 15009KT 30/18 A2997 RMK A01 T03000183  RH  049%=      5-min Rain = 0
KMC4 030301Z 15009KT 30/18 A2997 RMK A01 T02990182  RH  049%=      5-min Rain = 0
KMC4 030302Z 16010KT 30/18 A2997 RMK A01 T02990183  RH  050%=      5-min Rain = 0
KMC4 030303Z 15009KT 30/18 A2997 RMK A01 T02990183  RH  050%=      5-min Rain = 0
KMC4 030304Z 15008KT 30/18 A2997 RMK A01 T02990183  RH  050%=      5-min Rain = 0
KMC4 030305Z 15009KT 30/18 A2997 RMK A01 T02990183  RH  050%=      5-min Rain = 0
KMC4 030306Z 15007KT 30/18 A2997 RMK A01 T02980182  RH  050%=      5-min Rain = 0
KMC4 030307Z 15008KT 30/18 A2997 RMK A01 T02980183  RH  050%=      5-min Rain = 0
KMC4 030308Z 15008KT 30/18 A2997 RMK A01 T02980183  RH  050%=      5-min Rain = 0
KMC4 030309Z 15011KT 30/18 A2997 RMK A01 T02980183  RH  050%=      5-min Rain = 0
KMC4 030310Z 15010KT 30/18 A2997 RMK A01 T02970183  RH  050%=      5-min Rain = 0
KMC4 030311Z 15008KT 30/18 A2998 RMK A01 T02980183  RH  050%=      5-min Rain = 0
KMC4 030312Z 15010KT 30/18 A2998 RMK A01 T02980183  RH  050%=      5-min Rain = 0
KMC4 030313Z 15010KT 30/18 A2998 RMK A01 T02980183  RH  050%=      5-min Rain = 0
KMC4 030314Z 15007KT 30/18 A2998 RMK A01 T02970183  RH  050%=      5-min Rain = 0
KMC4 030315Z 15010KT 30/18 A2998 RMK A01 T02970183  RH  050%=      5-min Rain = 0
KMC4 030316Z 15009KT 30/18 A2998 RMK A01 T02970183  RH  050%=      5-min Rain = 0
KMC4 030317Z 14007KT 30/18 A2998 RMK A01 T02970183  RH  050%=      5-min Rain = 0
KMC4 030318Z 14007KT 30/18 A2998 RMK A01 T02970183  RH  050%=      5-min Rain = 0
KMC4 030319Z 14007KT 30/18 A2998 RMK A01 T02970183  RH  050%=      5-min Rain = 0
KMC4 030320Z 14007KT 30/18 A2998 RMK A01 T02960183  RH  051%=      5-min Rain = 0
KMC4 030321Z 14007KT 30/18 A2998 RMK A01 T02960183  RH  051%=      5-min Rain = 0
KMC4 030322Z 14007KT 30/18 A2998 RMK A01 T02960183  RH  051%=      5-min Rain = 0
KMC4 030323Z 14007KT 30/18 A2998 RMK A01 T02960183  RH  051%=      5-min Rain = 0
KMC4 030324Z 13006KT 30/18 A2998 RMK A01 T02960183  RH  051%=      5-min Rain = 0
KMC4 030325Z 14007KT 30/18 A2998 RMK A01 T02960183  RH  051%=      5-min Rain = 0
KMC4 030326Z 13005KT 30/18 A2999 RMK A01 T02960184  RH  051%=      5-min Rain = 0
KMC4 030327Z 13006KT 30/18 A2999 RMK A01 T02950183  RH  051%=      5-min Rain = 0
KMC4 030328Z 13007KT 30/18 A2999 RMK A01 T02950183  RH  051%=      5-min Rain = 0
KMC4 030329Z 13007KT 30/18 A2999 RMK A01 T02950183  RH  051%=      5-min Rain = 0
KMC4 030330Z 13006KT 30/18 A2999 RMK A01 T02950183  RH  051%=      5-min Rain = 0
KMC4 030331Z 13006KT 30/18 A2999 RMK A01 T02950183  RH  051%=      5-min Rain = 0
KMC4 030332Z 14006KT 30/18 A2999 RMK A01 T02950183  RH  051%=      5-min Rain = 0
KMC4 030333Z 14006KT 30/18 A2999 RMK A01 T02950183  RH  051%=      5-min Rain = 0
KMC4 030334Z 13006KT 30/18 A2999 RMK A01 T02950183  RH  051%=      5-min Rain = 0
KMC4 030335Z 14007KT 29/18 A2999 RMK A01 T02940184  RH  051%=      5-min Rain = 0
KMC4 030336Z 13006KT 29/18 A2999 RMK A01 T02940183  RH  051%=      5-min Rain = 0
KMC4 030337Z 13006KT 29/18 A2999 RMK A01 T02940183  RH  051%=      5-min Rain = 0
KMC4 030338Z 13006KT 29/18 A2999 RMK A01 T02940183  RH  051%=      5-min Rain = 0
KMC4 030339Z 14008KT 29/18 A2999 RMK A01 T02940184  RH  051%=      5-min Rain = 0
KMC4 030340Z 13006KT 29/18 A2999 RMK A01 T02940183  RH  051%=      5-min Rain = 0
KMC4 030341Z 14006KT 29/18 A2999 RMK A01 T02940183  RH  051%=      5-min Rain = 0
KMC4 030342Z 14006KT 29/18 A2999 RMK A01 T02940183  RH  051%=      5-min Rain = 0
KMC4 030343Z 14007KT 29/18 A2999 RMK A01 T02930183  RH  052%=      5-min Rain = 0
KMC4 030344Z 15007KT 29/18 A2999 RMK A01 T02940184  RH  052%=      5-min Rain = 0
KMC4 030345Z 14007KT 29/18 A2999 RMK A01 T02930183  RH  052%=      5-min Rain = 0
KMC4 030346Z 14005KT 29/18 A2999 RMK A01 T02930183  RH  052%=      5-min Rain = 0
KMC4 030347Z 14006KT 29/18 A2999 RMK A01 T02930183  RH  052%=      5-min Rain = 0
KMC4 030348Z 14007KT 29/18 A2999 RMK A01 T02930183  RH  052%=      5-min Rain = 0
KMC4 030349Z 14006KT 29/18 A2999 RMK A01 T02930183  RH  052%=      5-min Rain = 0
KMC4 030350Z 14006KT 29/18 A2999 RMK A01 T02930183  RH  052%=      5-min Rain = 0
KMC4 030351Z 14006KT 29/18 A2999 RMK A01 T02930183  RH  052%=      5-min Rain = 0
KMC4 030352Z 14006KT 29/18 A2999 RMK A01 T02930183  RH  052%=      5-min Rain = 0
KMC4 030353Z 14005KT 29/18 A2999 RMK A01 T02930183  RH  052%=      5-min Rain = 0
KMC4 030354Z 13008KT 29/18 A2999 RMK A01 T02930183  RH  052%=      5-min Rain = 0
KMC4 030355Z 14007KT 29/18 A2999 RMK A01 T02920183  RH  052%=      5-min Rain = 0
KMC4 030356Z 14006KT 29/18 A2999 RMK A01 T02920183  RH  052%=      5-min Rain = 0
KMC4 030357Z 14006KT 29/18 A2999 RMK A01 T02930183  RH  052%=      5-min Rain = 0
KMC4 030358Z 14005KT 29/18 A2999 RMK A01 T02920183  RH  052%=      5-min Rain = 0
KMC4 030359Z 14005KT 29/18 A2999 RMK A01 T02920183  RH  052%=      5-min Rain = 0
KMC4 030400Z 14005KT 29/18 A2999 RMK A01 T02920183  RH  052%=      5-min Rain = 0
KMC4 030401Z 14005KT 29/18 A2999 RMK A01 T02920183  RH  052%=      5-min Rain = 0
KMC4 030402Z 13005KT 29/18 A2999 RMK A01 T02910183  RH  052%=      5-min Rain = 0
KMC4 030403Z 13005KT 29/18 A2999 RMK A01 T02910183  RH  052%=      5-min Rain = 0
KMC4 030404Z 13005KT 29/18 A2999 RMK A01 T02920183  RH  052%=      5-min Rain = 0
KMC4 030405Z 13004KT 29/18 A30 RMK A01 T02920183  RH  052%=      5-min Rain = 0
KMC4 030406Z 14005KT 29/18 A30 RMK A01 T02910183  RH  052%=      5-min Rain = 0
KMC4 030407Z 13005KT 29/18 A30 RMK A01 T02910183  RH  052%=      5-min Rain = 0
KMC4 030408Z 13006KT 29/18 A30 RMK A01 T02910183  RH  052%=      5-min Rain = 0
KMC4 030409Z 13006KT 29/18 A30 RMK A01 T02910183  RH  052%=      5-min Rain = 0
KMC4 030410Z 14005KT 29/18 A30 RMK A01 T02910183  RH  052%=      5-min Rain = 0
KMC4 030411Z 13006KT 29/18 A30 RMK A01 T02900183  RH  052%=      5-min Rain = 0
KMC4 030412Z 13005KT 29/18 A30 RMK A01 T02900182  RH  052%=      5-min Rain = 0
KMC4 030413Z 13006KT 29/18 A30 RMK A01 T02900182  RH  052%=      5-min Rain = 0
KMC4 030414Z 13006KT 29/18 A30 RMK A01 T02900183  RH  052%=      5-min Rain = 0
KMC4 030415Z 13006KT 29/18 A30 RMK A01 T02900182  RH  052%=      5-min Rain = 0
KMC4 030416Z 13006KT 29/18 A30 RMK A01 T02900182  RH  052%=      5-min Rain = 0
KMC4 030417Z 13006KT 29/18 A30 RMK A01 T02900182  RH  052%=      5-min Rain = 0
KMC4 030418Z 13006KT 29/18 A30 RMK A01 T02890182  RH  052%=      5-min Rain = 0
KMC4 030419Z 13006KT 29/18 A30 RMK A01 T02900182  RH  052%=      5-min Rain = 0
KMC4 030420Z 13007KT 29/18 A30 RMK A01 T02890182  RH  052%=      5-min Rain = 0
KMC4 030421Z 14006KT 29/18 A30 RMK A01 T02890182  RH  052%=      5-min Rain = 0
KMC4 030422Z 13006KT 29/18 A30 RMK A01 T02890182  RH  052%=      5-min Rain = 0
KMC4 030423Z 13006KT 29/18 A30 RMK A01 T02890182  RH  052%=      5-min Rain = 0
KMC4 030424Z 13005KT 29/18 A30 RMK A01 T02890182  RH  052%=      5-min Rain = 0
KMC4 030425Z 13006KT 29/18 A30 RMK A01 T02890182  RH  052%=      5-min Rain = 0
KMC4 030426Z 13006KT 29/18 A30 RMK A01 T02880182  RH  053%=      5-min Rain = 0
KMC4 030427Z 13006KT 29/18 A30 RMK A01 T02880182  RH  053%=      5-min Rain = 0
KMC4 030428Z 13006KT 29/18 A30 RMK A01 T02870182  RH  053%=      5-min Rain = 0
KMC4 030429Z 13006KT 29/18 A30 RMK A01 T02870182  RH  053%=      5-min Rain = 0
KMC4 030430Z 13005KT 29/18 A30 RMK A01 T02870181  RH  053%=      5-min Rain = 0
KMC4 030431Z 13006KT 29/18 A30 RMK A01 T02860181  RH  053%=      5-min Rain = 0
KMC4 030432Z 13005KT 29/18 A30 RMK A01 T02860181  RH  053%=      5-min Rain = 0
KMC4 030433Z 13006KT 29/18 A30 RMK A01 T02850181  RH  053%=      5-min Rain = 0
KMC4 030434Z 13005KT 29/18 A30 RMK A01 T02850181  RH  053%=      5-min Rain = 0
KMC4 030435Z 13005KT 29/18 A30 RMK A01 T02850181  RH  053%=      5-min Rain = 0
KMC4 030436Z 13005KT 29/18 A30 RMK A01 T02850181  RH  053%=      5-min Rain = 0
KMC4 030437Z 13005KT 29/18 A30 RMK A01 T02850181  RH  053%=      5-min Rain = 0
KMC4 030438Z 13006KT 28/18 A30 RMK A01 T02840181  RH  054%=      5-min Rain = 0
KMC4 030439Z 13005KT 28/18 A30 RMK A01 T02840181  RH  054%=      5-min Rain = 0
KMC4 030440Z 13006KT 28/18 A30 RMK A01 T02840181  RH  054%=      5-min Rain = 0
KMC4 030441Z 13005KT 28/18 A30 RMK A01 T02840181  RH  054%=      5-min Rain = 0
KMC4 030442Z 13005KT 28/18 A30 RMK A01 T02840181  RH  054%=      5-min Rain = 0
KMC4 030443Z 13004KT 28/18 A30 RMK A01 T02840181  RH  054%=      5-min Rain = 0
KMC4 030444Z 13005KT 28/18 A30 RMK A01 T02840181  RH  054%=      5-min Rain = 0
KMC4 030445Z 13005KT 28/18 A30 RMK A01 T02840181  RH  054%=      5-min Rain = 0
KMC4 030446Z 13006KT 28/18 A30 RMK A01 T02840181  RH  054%=      5-min Rain = 0
KMC4 030447Z 13006KT 28/18 A30 RMK A01 T02840182  RH  054%=      5-min Rain = 0
KMC4 030448Z 13006KT 28/18 A30 RMK A01 T02840182  RH  054%=      5-min Rain = 0
KMC4 030449Z 13005KT 28/18 A30 RMK A01 T02840181  RH  054%=      5-min Rain = 0
KMC4 030450Z 13006KT 28/18 A30 RMK A01 T02840182  RH  054%=      5-min Rain = 0
KMC4 030451Z 13005KT 28/18 A30 RMK A01 T02840182  RH  054%=      5-min Rain = 0
KMC4 030452Z 13005KT 28/18 A30 RMK A01 T02840182  RH  054%=      5-min Rain = 0
KMC4 030453Z 13005KT 28/18 A30 RMK A01 T02840182  RH  054%=      5-min Rain = 0
KMC4 030454Z 13004KT 28/18 A30 RMK A01 T02840182  RH  054%=      5-min Rain = 0
KMC4 030455Z 13005KT 28/18 A30 RMK A01 T02830182  RH  054%=      5-min Rain = 0
KMC4 030456Z 13005KT 28/18 A30 RMK A01 T02830181  RH  054%=      5-min Rain = 0
KMC4 030457Z 14005KT 28/18 A30 RMK A01 T02830182  RH  054%=      5-min Rain = 0
KMC4 030458Z 13004KT 28/18 A30 RMK A01 T02830182  RH  054%=      5-min Rain = 0
KMC4 030459Z 13004KT 28/18 A30 RMK A01 T02830182  RH  054%=      5-min Rain = 0

Page generated in 0.1945 seconds.